Observation data for Junction on 05/24/2020      Previous  Date  Next       Current Mesonet Observations  Soil Data  Daily Summary Page  Observations in Plain Language
KJU1 240500Z 15013G18KT 23/13 A2985 RMK A01 T02310130  RH  053%=      5-min Rain = 0
KJU1 240501Z 15014G20KT 23/13 A2985 RMK A01 T02320131  RH  053%=      5-min Rain = 0
KJU1 240502Z 16013G22KT 23/13 A2985 RMK A01 T02320131  RH  053%=      5-min Rain = 0
KJU1 240503Z 16012G18KT 23/13 A2985 RMK A01 T02320131  RH  053%=      5-min Rain = 0
KJU1 240504Z 15014KT 23/13 A2985 RMK A01 T02330132  RH  053%=      5-min Rain = 0
KJU1 240505Z 15013KT 23/13 A2985 RMK A01 T02320130  RH  053%=      5-min Rain = 0
KJU1 240506Z 16010KT 23/13 A2985 RMK A01 T02330130  RH  052%=      5-min Rain = 0
KJU1 240507Z 17012KT 23/13 A2985 RMK A01 T02330132  RH  053%=      5-min Rain = 0
KJU1 240508Z 16013KT 23/13 A2985 RMK A01 T02320133  RH  054%=      5-min Rain = 0
KJU1 240509Z 16014G19KT 23/13 A2985 RMK A01 T02310132  RH  053%=      5-min Rain = 0
KJU1 240510Z 16012KT 23/13 A2986 RMK A01 T02310132  RH  054%=      5-min Rain = 0
KJU1 240511Z 16013KT 23/13 A2986 RMK A01 T02310133  RH  054%=      5-min Rain = 0
KJU1 240512Z 16014G20KT 23/13 A2986 RMK A01 T02300132  RH  054%=      5-min Rain = 0
KJU1 240513Z 16013G19KT 23/13 A2986 RMK A01 T02300132  RH  054%=      5-min Rain = 0
KJU1 240514Z 16014G22KT 23/13 A2986 RMK A01 T02300132  RH  054%=      5-min Rain = 0
KJU1 240515Z 17011G16KT 23/13 A2986 RMK A01 T02300133  RH  054%=      5-min Rain = 0
KJU1 240516Z 16014G22KT 23/13 A2986 RMK A01 T02290133  RH  055%=      5-min Rain = 0
KJU1 240517Z 16014KT 23/13 A2986 RMK A01 T02280134  RH  055%=      5-min Rain = 0
KJU1 240518Z 16011KT 23/13 A2986 RMK A01 T02280134  RH  055%=      5-min Rain = 0
KJU1 240519Z 16012G17KT 23/14 A2986 RMK A01 T02260135  RH  056%=      5-min Rain = 0
KJU1 240520Z 17015KT 23/14 A2986 RMK A01 T02250135  RH  057%=      5-min Rain = 0
KJU1 240521Z 16014KT 23/14 A2986 RMK A01 T02250136  RH  057%=      5-min Rain = 0
KJU1 240522Z 16014G19KT 22/14 A2986 RMK A01 T02240136  RH  058%=      5-min Rain = 0
KJU1 240523Z 16015G20KT 22/14 A2986 RMK A01 T02230136  RH  058%=      5-min Rain = 0
KJU1 240524Z 16015G21KT 22/14 A2986 RMK A01 T02220137  RH  058%=      5-min Rain = 0
KJU1 240525Z 16015KT 22/14 A2986 RMK A01 T02220137  RH  058%=      5-min Rain = 0
KJU1 240526Z 16012G17KT 22/14 A2986 RMK A01 T02220137  RH  058%=      5-min Rain = 0
KJU1 240527Z 15016G21KT 22/14 A2986 RMK A01 T02220137  RH  059%=      5-min Rain = 0
KJU1 240528Z 16018KT 22/14 A2987 RMK A01 T02220137  RH  058%=      5-min Rain = 0
KJU1 240529Z 15018G24KT 22/14 A2987 RMK A01 T02220137  RH  058%=      5-min Rain = 0
KJU1 240530Z 15016KT 22/14 A2987 RMK A01 T02230137  RH  058%=      5-min Rain = 0
KJU1 240531Z 17015KT 22/14 A2987 RMK A01 T02230138  RH  059%=      5-min Rain = 0
KJU1 240532Z 16017G24KT 22/14 A2987 RMK A01 T02230139  RH  059%=      5-min Rain = 0
KJU1 240533Z 16020G25KT 22/14 A2987 RMK A01 T02230139  RH  059%=      5-min Rain = 0
KJU1 240534Z 15014G21KT 22/14 A2987 RMK A01 T02230139  RH  059%=      5-min Rain = 0
KJU1 240535Z 15018KT 22/14 A2987 RMK A01 T02230140  RH  059%=      5-min Rain = 0
KJU1 240536Z 15016G21KT 22/14 A2987 RMK A01 T02230139  RH  059%=      5-min Rain = 0
KJU1 240537Z 15015G22KT 22/14 A2987 RMK A01 T02230139  RH  059%=      5-min Rain = 0
KJU1 240538Z 15016G21KT 22/14 A2987 RMK A01 T02230139  RH  059%=      5-min Rain = 0
KJU1 240539Z 16016G23KT 22/14 A2987 RMK A01 T02230140  RH  059%=      5-min Rain = 0
KJU1 240540Z 16012G18KT 22/14 A2987 RMK A01 T02220140  RH  060%=      5-min Rain = 0
KJU1 240541Z 15015KT 22/14 A2986 RMK A01 T02210140  RH  060%=      5-min Rain = 0
KJU1 240542Z 16010KT 22/14 A2987 RMK A01 T02200141  RH  061%=      5-min Rain = 0
KJU1 240543Z 15015G21KT 22/14 A2986 RMK A01 T02190141  RH  061%=      5-min Rain = 0
KJU1 240544Z 15015KT 22/14 A2986 RMK A01 T02190141  RH  061%=      5-min Rain = 0
KJU1 240545Z 15015KT 22/14 A2986 RMK A01 T02190140  RH  061%=      5-min Rain = 0
KJU1 240546Z 16015G21KT 22/14 A2986 RMK A01 T02190140  RH  061%=      5-min Rain = 0
KJU1 240547Z 16013G18KT 22/14 A2986 RMK A01 T02200140  RH  060%=      5-min Rain = 0
KJU1 240548Z 16011KT 22/14 A2986 RMK A01 T02200141  RH  061%=      5-min Rain = 0
KJU1 240549Z 15011G16KT 22/14 A2986 RMK A01 T02190141  RH  061%=      5-min Rain = 0
KJU1 240550Z 15009KT 22/14 A2986 RMK A01 T02190141  RH  061%=      5-min Rain = 0
KJU1 240551Z 15014G19KT 22/14 A2986 RMK A01 T02190141  RH  061%=      5-min Rain = 0
KJU1 240552Z 15012G17KT 22/14 A2986 RMK A01 T02190141  RH  061%=      5-min Rain = 0
KJU1 240553Z 16012KT 22/14 A2986 RMK A01 T02190141  RH  061%=      5-min Rain = 0
KJU1 240554Z 16011KT 22/14 A2986 RMK A01 T02190141  RH  061%=      5-min Rain = 0
KJU1 240555Z 15012G17KT 22/14 A2986 RMK A01 T02180142  RH  062%=      5-min Rain = 0
KJU1 240556Z 15014KT 22/14 A2986 RMK A01 T02180141  RH  061%=      5-min Rain = 0
KJU1 240557Z 15013KT 22/14 A2986 RMK A01 T02180140  RH  061%=      5-min Rain = 0
KJU1 240558Z 15012G18KT 22/14 A2986 RMK A01 T02190140  RH  061%=      5-min Rain = 0
KJU1 240559Z 14013G19KT 22/14 A2986 RMK A01 T02190140  RH  061%=      5-min Rain = 0
KJU1 240600Z 16016KT 22/14 A2986 RMK A01 T02190140  RH  060%=      5-min Rain = 0
KJU1 240601Z 15013KT 22/14 A2985 RMK A01 T02200140  RH  060%=      5-min Rain = 0
KJU1 240602Z 16014G19KT 22/14 A2985 RMK A01 T02200140  RH  060%=      5-min Rain = 0
KJU1 240603Z 15014G19KT 22/14 A2985 RMK A01 T02200141  RH  061%=      5-min Rain = 0
KJU1 240604Z 15012G18KT 22/14 A2985 RMK A01 T02190141  RH  061%=      5-min Rain = 0
KJU1 240605Z 15019G24KT 22/14 A2985 RMK A01 T02190140  RH  061%=      5-min Rain = 0
KJU1 240606Z 16014KT 22/14 A2985 RMK A01 T02210139  RH  060%=      5-min Rain = 0
KJU1 240607Z 16014KT 22/14 A2985 RMK A01 T02210138  RH  059%=      5-min Rain = 0
KJU1 240608Z 15013G19KT 22/14 A2985 RMK A01 T02220138  RH  059%=      5-min Rain = 0
KJU1 240609Z 15013KT 22/14 A2985 RMK A01 T02220138  RH  059%=      5-min Rain = 0
KJU1 240610Z 15013G22KT 22/14 A2984 RMK A01 T02220138  RH  059%=      5-min Rain = 0
KJU1 240611Z 15016G21KT 22/14 A2984 RMK A01 T02230136  RH  058%=      5-min Rain = 0
KJU1 240612Z 15012G18KT 23/14 A2984 RMK A01 T02250136  RH  057%=      5-min Rain = 0
KJU1 240613Z 15012KT 23/14 A2984 RMK A01 T02260136  RH  057%=      5-min Rain = 0
KJU1 240614Z 16012G18KT 23/14 A2984 RMK A01 T02260136  RH  057%=      5-min Rain = 0
KJU1 240615Z 15012KT 23/14 A2984 RMK A01 T02260136  RH  057%=      5-min Rain = 0
KJU1 240616Z 16013KT 23/14 A2984 RMK A01 T02250137  RH  057%=      5-min Rain = 0
KJU1 240617Z 16011KT 22/14 A2984 RMK A01 T02240137  RH  058%=      5-min Rain = 0
KJU1 240618Z 15010KT 22/14 A2984 RMK A01 T02240137  RH  058%=      5-min Rain = 0
KJU1 240619Z 15008KT 22/14 A2984 RMK A01 T02230137  RH  058%=      5-min Rain = 0
KJU1 240620Z 15011G17KT 22/14 A2984 RMK A01 T02220136  RH  058%=      5-min Rain = 0
KJU1 240621Z 15010G17KT 22/14 A2984 RMK A01 T02230135  RH  058%=      5-min Rain = 0
KJU1 240622Z 15009KT 22/14 A2984 RMK A01 T02240137  RH  058%=      5-min Rain = 0
KJU1 240623Z 15011G16KT 22/14 A2984 RMK A01 T02230137  RH  058%=      5-min Rain = 0
KJU1 240624Z 15010KT 22/14 A2984 RMK A01 T02220137  RH  058%=      5-min Rain = 0
KJU1 240625Z 16008KT 22/14 A2984 RMK A01 T02220137  RH  059%=      5-min Rain = 0
KJU1 240626Z 16008KT 22/14 A2984 RMK A01 T02210138  RH  059%=      5-min Rain = 0
KJU1 240627Z 15009KT 22/14 A2984 RMK A01 T02200138  RH  059%=      5-min Rain = 0
KJU1 240628Z 15009G15KT 22/14 A2984 RMK A01 T02200138  RH  060%=      5-min Rain = 0
KJU1 240629Z 15011KT 22/14 A2984 RMK A01 T02200137  RH  059%=      5-min Rain = 0
KJU1 240630Z 16011KT 22/14 A2984 RMK A01 T02200137  RH  059%=      5-min Rain = 0
KJU1 240631Z 15009KT 22/14 A2984 RMK A01 T02200136  RH  059%=      5-min Rain = 0
KJU1 240632Z 15009KT 22/14 A2984 RMK A01 T02200137  RH  059%=      5-min Rain = 0
KJU1 240633Z 16007KT 22/14 A2984 RMK A01 T02200138  RH  060%=      5-min Rain = 0
KJU1 240634Z 16008KT 22/14 A2984 RMK A01 T02190138  RH  060%=      5-min Rain = 0
KJU1 240635Z 17009KT 22/14 A2984 RMK A01 T02180138  RH  060%=      5-min Rain = 0
KJU1 240636Z 17011G16KT 22/14 A2984 RMK A01 T02170138  RH  061%=      5-min Rain = 0
KJU1 240637Z 17009KT 22/14 A2983 RMK A01 T02170139  RH  061%=      5-min Rain = 0
KJU1 240638Z 16011KT 22/14 A2983 RMK A01 T02170139  RH  061%=      5-min Rain = 0
KJU1 240639Z 17009KT 22/14 A2983 RMK A01 T02170139  RH  061%=      5-min Rain = 0
KJU1 240640Z 16008KT 22/14 A2983 RMK A01 T02170138  RH  061%=      5-min Rain = 0
KJU1 240641Z 16008KT 22/14 A2983 RMK A01 T02170138  RH  061%=      5-min Rain = 0
KJU1 240642Z 16010KT 22/14 A2983 RMK A01 T02180138  RH  061%=      5-min Rain = 0
KJU1 240643Z 16009KT 22/14 A2983 RMK A01 T02170137  RH  060%=      5-min Rain = 0
KJU1 240644Z 16010KT 22/14 A2983 RMK A01 T02170137  RH  060%=      5-min Rain = 0
KJU1 240645Z 16009KT 22/14 A2983 RMK A01 T02170137  RH  060%=      5-min Rain = 0
KJU1 240646Z 16010KT 22/14 A2983 RMK A01 T02170137  RH  060%=      5-min Rain = 0
KJU1 240647Z 16011KT 22/14 A2983 RMK A01 T02170137  RH  060%=      5-min Rain = 0
KJU1 240648Z 16009KT 22/14 A2983 RMK A01 T02180137  RH  060%=      5-min Rain = 0
KJU1 240649Z 16007KT 22/14 A2983 RMK A01 T02180137  RH  060%=      5-min Rain = 0
KJU1 240650Z 16011KT 22/14 A2983 RMK A01 T02180137  RH  060%=      5-min Rain = 0
KJU1 240651Z 15010KT 22/14 A2983 RMK A01 T02180137  RH  060%=      5-min Rain = 0
KJU1 240652Z 16010KT 22/14 A2983 RMK A01 T02180137  RH  060%=      5-min Rain = 0
KJU1 240653Z 16009KT 22/14 A2983 RMK A01 T02180136  RH  060%=      5-min Rain = 0
KJU1 240654Z 16012KT 22/14 A2983 RMK A01 T02180137  RH  060%=      5-min Rain = 0
KJU1 240655Z 15011KT 22/14 A2983 RMK A01 T02180136  RH  060%=      5-min Rain = 0
KJU1 240656Z 15011KT 22/14 A2983 RMK A01 T02190136  RH  059%=      5-min Rain = 0
KJU1 240657Z 15008KT 22/14 A2983 RMK A01 T02190137  RH  060%=      5-min Rain = 0
KJU1 240658Z 15009KT 22/14 A2983 RMK A01 T02190137  RH  060%=      5-min Rain = 0
KJU1 240659Z 15011KT 22/14 A2983 RMK A01 T02180137  RH  060%=      5-min Rain = 0
KJU1 240700Z 14007KT 22/14 A2983 RMK A01 T02180137  RH  060%=      5-min Rain = 0
KJU1 240701Z 14010KT 22/14 A2983 RMK A01 T02180137  RH  060%=      5-min Rain = 0
KJU1 240702Z 15007KT 22/14 A2983 RMK A01 T02180137  RH  060%=      5-min Rain = 0
KJU1 240703Z 15008KT 22/14 A2983 RMK A01 T02170137  RH  060%=      5-min Rain = 0
KJU1 240704Z 15009KT 22/14 A2983 RMK A01 T02170137  RH  060%=      5-min Rain = 0
KJU1 240705Z 15012KT 22/14 A2983 RMK A01 T02170137  RH  060%=      5-min Rain = 0
KJU1 240706Z 15010KT 22/14 A2983 RMK A01 T02170137  RH  060%=      5-min Rain = 0
KJU1 240707Z 15009KT 22/14 A2983 RMK A01 T02170137  RH  060%=      5-min Rain = 0
KJU1 240708Z 16010KT 22/14 A2983 RMK A01 T02170137  RH  060%=      5-min Rain = 0
KJU1 240709Z 16009KT 22/14 A2983 RMK A01 T02170138  RH  060%=      5-min Rain = 0
KJU1 240710Z 16010KT 22/14 A2983 RMK A01 T02170138  RH  060%=      5-min Rain = 0
KJU1 240711Z 16010G15KT 22/14 A2983 RMK A01 T02170138  RH  061%=      5-min Rain = 0
KJU1 240712Z 15009KT 22/14 A2983 RMK A01 T02170138  RH  061%=      5-min Rain = 0
KJU1 240713Z 16010KT 22/14 A2983 RMK A01 T02170138  RH  061%=      5-min Rain = 0
KJU1 240714Z 15011KT 22/14 A2983 RMK A01 T02170138  RH  061%=      5-min Rain = 0
KJU1 240715Z 16010KT 22/14 A2983 RMK A01 T02170137  RH  060%=      5-min Rain = 0
KJU1 240716Z 17009KT 22/14 A2983 RMK A01 T02170137  RH  060%=      5-min Rain = 0
KJU1 240717Z 17009KT 22/14 A2984 RMK A01 T02170137  RH  060%=      5-min Rain = 0
KJU1 240718Z 18011G17KT 22/14 A2984 RMK A01 T02170137  RH  060%=      5-min Rain = 0
KJU1 240719Z 20014KT 22/14 A2985 RMK A01 T02170137  RH  060%=      5-min Rain = 0
KJU1 240720Z 20012KT 22/14 A2985 RMK A01 T02170138  RH  060%=      5-min Rain = 0
KJU1 240721Z 20009KT 22/14 A2985 RMK A01 T02170139  RH  061%=      5-min Rain = 0
KJU1 240722Z 20011KT 22/14 A2985 RMK A01 T02170139  RH  061%=      5-min Rain = 0
KJU1 240723Z 20010G15KT 22/14 A2985 RMK A01 T02160139  RH  062%=      5-min Rain = 0
KJU1 240724Z 20010KT 22/14 A2985 RMK A01 T02160140  RH  062%=      5-min Rain = 0
KJU1 240725Z 20011KT 22/14 A2985 RMK A01 T02150139  RH  062%=      5-min Rain = 0
KJU1 240726Z 20012KT 22/14 A2985 RMK A01 T02150140  RH  062%=      5-min Rain = 0
KJU1 240727Z 20010KT 22/14 A2985 RMK A01 T02150140  RH  062%=      5-min Rain = 0
KJU1 240728Z 20010KT 21/14 A2985 RMK A01 T02140140  RH  062%=      5-min Rain = 0
KJU1 240729Z 20010KT 21/14 A2985 RMK A01 T02140140  RH  063%=      5-min Rain = 0
KJU1 240730Z 19008KT 21/14 A2985 RMK A01 T02140140  RH  063%=      5-min Rain = 0
KJU1 240731Z 19007KT 21/14 A2985 RMK A01 T02130140  RH  063%=      5-min Rain = 0
KJU1 240732Z 20007KT 21/14 A2985 RMK A01 T02130140  RH  063%=      5-min Rain = 0
KJU1 240733Z 20007KT 21/14 A2985 RMK A01 T02130140  RH  063%=      5-min Rain = 0
KJU1 240734Z 20007KT 21/14 A2985 RMK A01 T02120141  RH  064%=      5-min Rain = 0
KJU1 240735Z 20008KT 21/14 A2985 RMK A01 T02120141  RH  064%=      5-min Rain = 0
KJU1 240736Z 20008KT 21/14 A2985 RMK A01 T02110140  RH  064%=      5-min Rain = 0
KJU1 240737Z 19006KT 21/14 A2985 RMK A01 T02120140  RH  063%=      5-min Rain = 0
KJU1 240738Z 20006KT 21/14 A2985 RMK A01 T02120140  RH  064%=      5-min Rain = 0
KJU1 240739Z 19007KT 21/14 A2985 RMK A01 T02110140  RH  064%=      5-min Rain = 0
KJU1 240740Z 19007KT 21/14 A2985 RMK A01 T02110141  RH  064%=      5-min Rain = 0
KJU1 240741Z 19005KT 21/14 A2985 RMK A01 T02110141  RH  064%=      5-min Rain = 0
KJU1 240742Z 19007KT 21/14 A2985 RMK A01 T02100141  RH  064%=      5-min Rain = 0
KJU1 240743Z 18006KT 21/14 A2984 RMK A01 T02100141  RH  065%=      5-min Rain = 0
KJU1 240744Z 18006KT 21/14 A2984 RMK A01 T02090141  RH  065%=      5-min Rain = 0
KJU1 240745Z 19006KT 21/14 A2984 RMK A01 T02090141  RH  065%=      5-min Rain = 0
KJU1 240746Z 19006KT 21/14 A2984 RMK A01 T02080141  RH  065%=      5-min Rain = 0
KJU1 240747Z 20006G11KT 21/14 A2984 RMK A01 T02070141  RH  066%=      5-min Rain = 0
KJU1 240748Z 19007KT 21/14 A2984 RMK A01 T02070142  RH  066%=      5-min Rain = 0
KJU1 240749Z 19006KT 21/14 A2984 RMK A01 T02060141  RH  066%=      5-min Rain = 0
KJU1 240750Z 18004KT 21/14 A2984 RMK A01 T02070141  RH  066%=      5-min Rain = 0
KJU1 240751Z 16005KT 21/14 A2983 RMK A01 T02070142  RH  066%=      5-min Rain = 0
KJU1 240752Z 16004KT 21/14 A2983 RMK A01 T02070141  RH  066%=      5-min Rain = 0
KJU1 240753Z 15006KT 21/14 A2983 RMK A01 T02060141  RH  066%=      5-min Rain = 0
KJU1 240754Z 15006KT 21/14 A2983 RMK A01 T02060140  RH  066%=      5-min Rain = 0
KJU1 240755Z 14006KT 21/14 A2983 RMK A01 T02060140  RH  066%=      5-min Rain = 0
KJU1 240756Z 13007KT 21/14 A2982 RMK A01 T02070139  RH  065%=      5-min Rain = 0
KJU1 240757Z 13008KT 21/14 A2982 RMK A01 T02080139  RH  064%=      5-min Rain = 0
KJU1 240758Z 11008KT 21/14 A2982 RMK A01 T02090138  RH  064%=      5-min Rain = 0
KJU1 240759Z 12008KT 21/14 A2982 RMK A01 T02100139  RH  064%=      5-min Rain = 0
KJU1 240800Z 13007KT 21/14 A2982 RMK A01 T02100139  RH  064%=      5-min Rain = 0
KJU1 240801Z 15007KT 21/14 A2982 RMK A01 T02100140  RH  064%=      5-min Rain = 0
KJU1 240802Z 17008KT 21/14 A2983 RMK A01 T02100140  RH  065%=      5-min Rain = 0
KJU1 240803Z 17007KT 21/14 A2983 RMK A01 T02090140  RH  065%=      5-min Rain = 0
KJU1 240804Z 17006KT 21/14 A2983 RMK A01 T02080141  RH  065%=      5-min Rain = 0
KJU1 240805Z 17005KT 21/14 A2983 RMK A01 T02080140  RH  065%=      5-min Rain = 0
KJU1 240806Z 18005KT 21/14 A2982 RMK A01 T02080141  RH  065%=      5-min Rain = 0
KJU1 240807Z 18005KT 21/14 A2983 RMK A01 T02080141  RH  066%=      5-min Rain = 0
KJU1 240808Z 19005KT 21/14 A2983 RMK A01 T02070141  RH  066%=      5-min Rain = 0
KJU1 240809Z 19004KT 21/14 A2982 RMK A01 T02060141  RH  066%=      5-min Rain = 0
KJU1 240810Z 17007KT 21/14 A2982 RMK A01 T02060141  RH  066%=      5-min Rain = 0
KJU1 240811Z 16005KT 21/14 A2982 RMK A01 T02060140  RH  066%=      5-min Rain = 0
KJU1 240812Z 16005KT 21/14 A2982 RMK A01 T02060139  RH  065%=      5-min Rain = 0
KJU1 240813Z 15004KT 21/14 A2982 RMK A01 T02070140  RH  065%=      5-min Rain = 0
KJU1 240814Z 14005KT 21/14 A2982 RMK A01 T02070140  RH  065%=      5-min Rain = 0
KJU1 240815Z 14004KT 21/14 A2982 RMK A01 T02070140  RH  065%=      5-min Rain = 0
KJU1 240816Z 13003KT 21/14 A2982 RMK A01 T02060140  RH  066%=      5-min Rain = 0
KJU1 240817Z 14002KT 21/14 A2982 RMK A01 T02060140  RH  066%=      5-min Rain = 0
KJU1 240818Z 15002KT 21/14 A2982 RMK A01 T02050140  RH  066%=      5-min Rain = 0
KJU1 240819Z 16004KT 21/14 A2982 RMK A01 T02050140  RH  066%=      5-min Rain = 0
KJU1 240820Z 15004KT 21/14 A2982 RMK A01 T02050140  RH  066%=      5-min Rain = 0
KJU1 240821Z 12004KT 21/14 A2982 RMK A01 T02050140  RH  066%=      5-min Rain = 0
KJU1 240822Z 12004KT 21/14 A2982 RMK A01 T02050140  RH  066%=      5-min Rain = 0
KJU1 240823Z 14004KT 21/14 A2982 RMK A01 T02050141  RH  067%=      5-min Rain = 0
KJU1 240824Z 16003KT 20/14 A2982 RMK A01 T02040141  RH  067%=      5-min Rain = 0
KJU1 240825Z 19002KT 20/14 A2982 RMK A01 T02040141  RH  067%=      5-min Rain = 0
KJU1 240826Z 23003KT 20/14 A2982 RMK A01 T02040142  RH  067%=      5-min Rain = 0
KJU1 240827Z 24004KT 20/14 A2983 RMK A01 T02020141  RH  068%=      5-min Rain = 0
KJU1 240828Z 24004KT 20/14 A2983 RMK A01 T02010142  RH  069%=      5-min Rain = 0
KJU1 240829Z 26002KT 20/14 A2983 RMK A01 T02000142  RH  069%=      5-min Rain = 0
KJU1 240830Z 26003KT 20/14 A2983 RMK A01 T01990143  RH  070%=      5-min Rain = 0
KJU1 240831Z 24003KT 20/14 A2983 RMK A01 T01980143  RH  070%=      5-min Rain = 0
KJU1 240832Z 24004KT 20/14 A2983 RMK A01 T01980142  RH  070%=      5-min Rain = 0
KJU1 240833Z 24004KT 20/14 A2983 RMK A01 T01980142  RH  070%=      5-min Rain = 0
KJU1 240834Z 23003KT 20/14 A2983 RMK A01 T01970143  RH  071%=      5-min Rain = 0
KJU1 240835Z 23003KT 20/14 A2982 RMK A01 T01970143  RH  071%=      5-min Rain = 0
KJU1 240836Z 22002KT 20/14 A2982 RMK A01 T01970143  RH  071%=      5-min Rain = 0
KJU1 240837Z 21003KT 20/14 A2982 RMK A01 T01960143  RH  071%=      5-min Rain = 0
KJU1 240838Z 20004KT 20/14 A2982 RMK A01 T01960144  RH  072%=      5-min Rain = 0
KJU1 240839Z 21004KT 20/14 A2982 RMK A01 T01960144  RH  072%=      5-min Rain = 0
KJU1 240840Z 19004KT 19/14 A2982 RMK A01 T01940144  RH  073%=      5-min Rain = 0
KJU1 240841Z 19005KT 19/14 A2982 RMK A01 T01940144  RH  073%=      5-min Rain = 0
KJU1 240842Z 18005KT 19/14 A2982 RMK A01 T01930144  RH  073%=      5-min Rain = 0
KJU1 240843Z 17004KT 19/14 A2982 RMK A01 T01930143  RH  073%=      5-min Rain = 0
KJU1 240844Z 17004KT 19/15 A2982 RMK A01 T01940145  RH  073%=      5-min Rain = 0
KJU1 240845Z 18004KT 19/15 A2982 RMK A01 T01930145  RH  074%=      5-min Rain = 0
KJU1 240846Z 19005KT 19/15 A2982 RMK A01 T01910145  RH  074%=      5-min Rain = 0
KJU1 240847Z 19004KT 19/15 A2982 RMK A01 T01910145  RH  075%=      5-min Rain = 0
KJU1 240848Z 19003KT 19/15 A2982 RMK A01 T01900145  RH  075%=      5-min Rain = 0
KJU1 240849Z 20003KT 19/15 A2982 RMK A01 T01890145  RH  075%=      5-min Rain = 0
KJU1 240850Z 21003KT 19/15 A2982 RMK A01 T01890145  RH  075%=      5-min Rain = 0
KJU1 240851Z 21004KT 19/15 A2982 RMK A01 T01890145  RH  076%=      5-min Rain = 0
KJU1 240852Z 20004KT 19/15 A2982 RMK A01 T01890145  RH  076%=      5-min Rain = 0
KJU1 240853Z 20004KT 19/15 A2982 RMK A01 T01890146  RH  076%=      5-min Rain = 0
KJU1 240854Z 21004KT 19/15 A2982 RMK A01 T01880146  RH  077%=      5-min Rain = 0
KJU1 240855Z 20004KT 19/15 A2982 RMK A01 T01880147  RH  077%=      5-min Rain = 0
KJU1 240856Z 20003KT 19/15 A2982 RMK A01 T01880147  RH  077%=      5-min Rain = 0
KJU1 240857Z 22004KT 19/15 A2982 RMK A01 T01870147  RH  077%=      5-min Rain = 0
KJU1 240858Z 21004KT 19/15 A2982 RMK A01 T01870147  RH  077%=      5-min Rain = 0
KJU1 240859Z 22004KT 19/15 A2982 RMK A01 T01870146  RH  077%=      5-min Rain = 0
KJU1 240900Z 22003KT 19/15 A2982 RMK A01 T01880146  RH  077%=      5-min Rain = 0
KJU1 240901Z 21004KT 19/15 A2982 RMK A01 T01880146  RH  076%=      5-min Rain = 0
KJU1 240902Z 20003KT 19/15 A2982 RMK A01 T01890146  RH  076%=      5-min Rain = 0
KJU1 240903Z 19003KT 19/15 A2982 RMK A01 T01890146  RH  076%=      5-min Rain = 0
KJU1 240904Z 21002KT 19/15 A2982 RMK A01 T01890146  RH  076%=      5-min Rain = 0
KJU1 240905Z 21003KT 19/15 A2982 RMK A01 T01900146  RH  076%=      5-min Rain = 0
KJU1 240906Z 21004KT 19/15 A2982 RMK A01 T01900146  RH  076%=      5-min Rain = 0
KJU1 240907Z 21004KT 19/15 A2983 RMK A01 T01900147  RH  076%=      5-min Rain = 0
KJU1 240908Z 20002KT 19/15 A2983 RMK A01 T01900147  RH  076%=      5-min Rain = 0
KJU1 240909Z 21003KT 19/15 A2983 RMK A01 T01900147  RH  076%=      5-min Rain = 0
KJU1 240910Z 20002KT 19/15 A2983 RMK A01 T01890147  RH  076%=      5-min Rain = 0
KJU1 240911Z 16002KT 19/15 A2983 RMK A01 T01890147  RH  076%=      5-min Rain = 0
KJU1 240912Z 19001KT 19/15 A2983 RMK A01 T01890148  RH  077%=      5-min Rain = 0
KJU1 240913Z 21001KT 19/15 A2983 RMK A01 T01880148  RH  078%=      5-min Rain = 0
KJU1 240914Z 09002KT 19/15 A2983 RMK A01 T01870148  RH  078%=      5-min Rain = 0
KJU1 240915Z 09002KT 19/15 A2983 RMK A01 T01850148  RH  079%=      5-min Rain = 0
KJU1 240916Z 06001KT 18/15 A2983 RMK A01 T01830149  RH  080%=      5-min Rain = 0
KJU1 240917Z 07001KT 18/15 A2984 RMK A01 T01810149  RH  081%=      5-min Rain = 0
KJU1 240918Z 07001KT 18/15 A2984 RMK A01 T01800149  RH  082%=      5-min Rain = 0
KJU1 240919Z 06001KT 18/15 A2984 RMK A01 T01790149  RH  083%=      5-min Rain = 0
KJU1 240920Z 34001KT 18/15 A2984 RMK A01 T01780149  RH  083%=      5-min Rain = 0
KJU1 240921Z 31001KT 18/15 A2984 RMK A01 T01780149  RH  083%=      5-min Rain = 0
KJU1 240922Z 29001KT 18/15 A2984 RMK A01 T01790150  RH  083%=      5-min Rain = 0
KJU1 240923Z 27001KT 18/15 A2984 RMK A01 T01800151  RH  083%=      5-min Rain = 0
KJU1 240924Z 23002KT 18/15 A2984 RMK A01 T01800151  RH  083%=      5-min Rain = 0
KJU1 240925Z 23003KT 18/15 A2985 RMK A01 T01800150  RH  082%=      5-min Rain = 0
KJU1 240926Z 23004KT 18/15 A2985 RMK A01 T01810151  RH  082%=      5-min Rain = 0
KJU1 240927Z 25002KT 18/15 A2985 RMK A01 T01830151  RH  082%=      5-min Rain = 0
KJU1 240928Z 25002KT 19/15 A2984 RMK A01 T01850151  RH  081%=      5-min Rain = 0
KJU1 240929Z 29001KT 19/15 A2984 RMK A01 T01850151  RH  080%=      5-min Rain = 0
KJU1 240930Z 26002KT 19/15 A2984 RMK A01 T01870152  RH  080%=      5-min Rain = 0
KJU1 240931Z 25003KT 19/15 A2985 RMK A01 T01870152  RH  080%=      5-min Rain = 0
KJU1 240932Z 25003KT 19/15 A2985 RMK A01 T01870151  RH  079%=      5-min Rain = 0
KJU1 240933Z 27003KT 19/15 A2985 RMK A01 T01870151  RH  080%=      5-min Rain = 0
KJU1 240934Z 26002KT 19/15 A2985 RMK A01 T01870152  RH  080%=      5-min Rain = 0
KJU1 240935Z 25001KT 19/15 A2985 RMK A01 T01870152  RH  080%=      5-min Rain = 0
KJU1 240936Z 25000KT 18/15 A2985 RMK A01 T01840150  RH  081%=      5-min Rain = 0
KJU1 240937Z 28000KT 18/15 A2985 RMK A01 T01830151  RH  082%=      5-min Rain = 0
KJU1 240938Z 00000KT 18/15 A2985 RMK A01 T01810150  RH  082%=      5-min Rain = 0
KJU1 240939Z 00000KT 18/15 A2985 RMK A01 T01790150  RH  083%=      5-min Rain = 0
KJU1 240940Z 31000KT 18/15 A2985 RMK A01 T01780150  RH  084%=      5-min Rain = 0
KJU1 240941Z 27001KT 18/15 A2985 RMK A01 T01770150  RH  084%=      5-min Rain = 0
KJU1 240942Z 17001KT 18/15 A2986 RMK A01 T01760150  RH  085%=      5-min Rain = 0
KJU1 240943Z 15001KT 18/15 A2986 RMK A01 T01760151  RH  085%=      5-min Rain = 0
KJU1 240944Z 16001KT 17/15 A2985 RMK A01 T01740151  RH  086%=      5-min Rain = 0
KJU1 240945Z 15001KT 17/15 A2985 RMK A01 T01740152  RH  087%=      5-min Rain = 0
KJU1 240946Z 15002KT 17/15 A2986 RMK A01 T01740151  RH  086%=      5-min Rain = 0
KJU1 240947Z 16002KT 17/15 A2986 RMK A01 T01730150  RH  087%=      5-min Rain = 0
KJU1 240948Z 14002KT 17/15 A2986 RMK A01 T01730152  RH  088%=      5-min Rain = 0
KJU1 240949Z 15002KT 17/15 A2986 RMK A01 T01720152  RH  088%=      5-min Rain = 0
KJU1 240950Z 15003KT 17/15 A2986 RMK A01 T01720151  RH  088%=      5-min Rain = 0
KJU1 240951Z 15004KT 17/15 A2986 RMK A01 T01710151  RH  088%=      5-min Rain = 0
KJU1 240952Z 17002KT 17/15 A2986 RMK A01 T01710152  RH  089%=      5-min Rain = 0
KJU1 240953Z 19002KT 17/15 A2986 RMK A01 T01710153  RH  089%=      5-min Rain = 0
KJU1 240954Z 18002KT 17/15 A2986 RMK A01 T01710154  RH  089%=      5-min Rain = 0
KJU1 240955Z 19003KT 17/16 A2986 RMK A01 T01720155  RH  090%=      5-min Rain = 0
KJU1 240956Z 19004KT 17/15 A2986 RMK A01 T01720154  RH  089%=      5-min Rain = 0
KJU1 240957Z 18004KT 17/15 A2986 RMK A01 T01720154  RH  089%=      5-min Rain = 0
KJU1 240958Z 20003KT 17/15 A2986 RMK A01 T01710154  RH  090%=      5-min Rain = 0
KJU1 240959Z 18003KT 17/15 A2986 RMK A01 T01710154  RH  090%=      5-min Rain = 0
KJU1 241000Z 20004KT 17/15 A2986 RMK A01 T01710154  RH  090%=      5-min Rain = 0
KJU1 241001Z 21005KT 17/16 A2986 RMK A01 T01710155  RH  090%=      5-min Rain = 0
KJU1 241002Z 20004KT 17/16 A2986 RMK A01 T01710156  RH  090%=      5-min Rain = 0
KJU1 241003Z 21003KT 17/16 A2986 RMK A01 T01710155  RH  090%=      5-min Rain = 0
KJU1 241004Z 19005KT 17/16 A2986 RMK A01 T01720155  RH  090%=      5-min Rain = 0
KJU1 241005Z 20005KT 17/16 A2986 RMK A01 T01710155  RH  090%=      5-min Rain = 0
KJU1 241006Z 21005KT 17/16 A2986 RMK A01 T01710155  RH  090%=      5-min Rain = 0
KJU1 241007Z 21005KT 17/16 A2986 RMK A01 T01720157  RH  091%=      5-min Rain = 0
KJU1 241008Z 20005KT 17/16 A2986 RMK A01 T01730158  RH  091%=      5-min Rain = 0
KJU1 241009Z 19004KT 17/16 A2985 RMK A01 T01740159  RH  091%=      5-min Rain = 0
KJU1 241010Z 20005KT 18/16 A2985 RMK A01 T01750160  RH  091%=      5-min Rain = 0
KJU1 241011Z 20006KT 18/16 A2985 RMK A01 T01760160  RH  090%=      5-min Rain = 0
KJU1 241012Z 20006KT 18/16 A2985 RMK A01 T01760160  RH  090%=      5-min Rain = 0
KJU1 241013Z 20004KT 18/16 A2985 RMK A01 T01770161  RH  090%=      5-min Rain = 0
KJU1 241014Z 20005KT 18/16 A2985 RMK A01 T01780161  RH  090%=      5-min Rain = 0
KJU1 241015Z 21005KT 18/16 A2985 RMK A01 T01780160  RH  089%=      5-min Rain = 0
KJU1 241016Z 21006KT 18/16 A2985 RMK A01 T01780161  RH  090%=      5-min Rain = 0
KJU1 241017Z 20007KT 18/16 A2985 RMK A01 T01780162  RH  090%=      5-min Rain = 0
KJU1 241018Z 21007KT 18/16 A2985 RMK A01 T01800164  RH  090%=      5-min Rain = 0
KJU1 241019Z 21006KT 18/17 A2985 RMK A01 T01810165  RH  090%=      5-min Rain = 0
KJU1 241020Z 22005KT 18/17 A2984 RMK A01 T01820165  RH  089%=      5-min Rain = 0
KJU1 241021Z 22005KT 18/17 A2984 RMK A01 T01830165  RH  089%=      5-min Rain = 0
KJU1 241022Z 22005KT 18/17 A2984 RMK A01 T01830165  RH  089%=      5-min Rain = 0
KJU1 241023Z 22004KT 18/17 A2984 RMK A01 T01840165  RH  089%=      5-min Rain = 0
KJU1 241024Z 21004KT 18/17 A2984 RMK A01 T01840165  RH  089%=      5-min Rain = 0
KJU1 241025Z 22004KT 18/17 A2984 RMK A01 T01830165  RH  089%=      5-min Rain = 0
KJU1 241026Z 21004KT 18/17 A2984 RMK A01 T01830165  RH  089%=      5-min Rain = 0
KJU1 241027Z 21003KT 18/17 A2984 RMK A01 T01830165  RH  089%=      5-min Rain = 0
KJU1 241028Z 21004KT 18/17 A2984 RMK A01 T01840165  RH  089%=      5-min Rain = 0
KJU1 241029Z 21004KT 18/17 A2985 RMK A01 T01830165  RH  089%=      5-min Rain = 0
KJU1 241030Z 22004KT 18/17 A2985 RMK A01 T01830165  RH  089%=      5-min Rain = 0
KJU1 241031Z 21004KT 18/17 A2985 RMK A01 T01830166  RH  089%=      5-min Rain = 0
KJU1 241032Z 20003KT 18/17 A2985 RMK A01 T01840166  RH  089%=      5-min Rain = 0
KJU1 241033Z 20004KT 18/17 A2985 RMK A01 T01840166  RH  089%=      5-min Rain = 0
KJU1 241034Z 20003KT 18/17 A2985 RMK A01 T01840167  RH  090%=      5-min Rain = 0
KJU1 241035Z 20004KT 18/17 A2985 RMK A01 T01840167  RH  090%=      5-min Rain = 0
KJU1 241036Z 21005KT 18/17 A2985 RMK A01 T01840167  RH  090%=      5-min Rain = 0
KJU1 241037Z 20004KT 19/17 A2985 RMK A01 T01850168  RH  090%=      5-min Rain = 0
KJU1 241038Z 20004KT 19/17 A2985 RMK A01 T01860169  RH  090%=      5-min Rain = 0
KJU1 241039Z 19004KT 19/17 A2985 RMK A01 T01860168  RH  089%=      5-min Rain = 0
KJU1 241040Z 18004KT 19/17 A2985 RMK A01 T01850167  RH  089%=      5-min Rain = 0
KJU1 241041Z 19004KT 18/17 A2985 RMK A01 T01840166  RH  089%=      5-min Rain = 0
KJU1 241042Z 19005KT 18/17 A2985 RMK A01 T01830165  RH  089%=      5-min Rain = 0
KJU1 241043Z 19004KT 18/17 A2985 RMK A01 T01820165  RH  090%=      5-min Rain = 0
KJU1 241044Z 19003KT 18/17 A2985 RMK A01 T01820165  RH  090%=      5-min Rain = 0
KJU1 241045Z 19003KT 18/17 A2985 RMK A01 T01810165  RH  090%=      5-min Rain = 0
KJU1 241046Z 18003KT 18/17 A2985 RMK A01 T01810165  RH  090%=      5-min Rain = 0
KJU1 241047Z 17003KT 18/16 A2985 RMK A01 T01800164  RH  090%=      5-min Rain = 0
KJU1 241048Z 18003KT 18/16 A2985 RMK A01 T01790163  RH  091%=      5-min Rain = 0
KJU1 241049Z 18003KT 18/16 A2985 RMK A01 T01780163  RH  091%=      5-min Rain = 0
KJU1 241050Z 17004KT 18/16 A2985 RMK A01 T01780164  RH  091%=      5-min Rain = 0
KJU1 241051Z 18004KT 18/16 A2985 RMK A01 T01770163  RH  092%=      5-min Rain = 0
KJU1 241052Z 17004KT 18/16 A2985 RMK A01 T01770163  RH  092%=      5-min Rain = 0
KJU1 241053Z 17003KT 18/16 A2985 RMK A01 T01760163  RH  092%=      5-min Rain = 0
KJU1 241054Z 18003KT 18/16 A2985 RMK A01 T01760163  RH  092%=      5-min Rain = 0
KJU1 241055Z 18003KT 18/16 A2985 RMK A01 T01760163  RH  092%=      5-min Rain = 0
KJU1 241056Z 19003KT 18/16 A2985 RMK A01 T01750163  RH  093%=      5-min Rain = 0
KJU1 241057Z 19003KT 18/16 A2985 RMK A01 T01750163  RH  092%=      5-min Rain = 0
KJU1 241058Z 19003KT 18/16 A2985 RMK A01 T01750163  RH  093%=      5-min Rain = 0
KJU1 241059Z 19003KT 17/16 A2985 RMK A01 T01740163  RH  093%=      5-min Rain = 0
KJU1 241100Z 18003KT 17/16 A2985 RMK A01 T01740163  RH  093%=      5-min Rain = 0
KJU1 241101Z 18003KT 17/16 A2985 RMK A01 T01740163  RH  093%=      5-min Rain = 0
KJU1 241102Z 17003KT 17/16 A2985 RMK A01 T01740162  RH  093%=      5-min Rain = 0
KJU1 241103Z 16004KT 17/16 A2985 RMK A01 T01740163  RH  093%=      5-min Rain = 0
KJU1 241104Z 15004KT 17/16 A2985 RMK A01 T01740163  RH  093%=      5-min Rain = 0
KJU1 241105Z 15003KT 17/16 A2985 RMK A01 T01740162  RH  093%=      5-min Rain = 0
KJU1 241106Z 15003KT 17/16 A2985 RMK A01 T01740162  RH  093%=      5-min Rain = 0
KJU1 241107Z 17004KT 17/16 A2985 RMK A01 T01740163  RH  093%=      5-min Rain = 0
KJU1 241108Z 17003KT 17/16 A2985 RMK A01 T01740163  RH  093%=      5-min Rain = 0
KJU1 241109Z 16003KT 17/16 A2985 RMK A01 T01740162  RH  093%=      5-min Rain = 0
KJU1 241110Z 17003KT 17/16 A2985 RMK A01 T01740162  RH  093%=      5-min Rain = 0
KJU1 241111Z 17004KT 17/16 A2985 RMK A01 T01740162  RH  093%=      5-min Rain = 0
KJU1 241112Z 17003KT 17/16 A2985 RMK A01 T01740162  RH  093%=      5-min Rain = 0
KJU1 241113Z 17004KT 17/16 A2985 RMK A01 T01740162  RH  093%=      5-min Rain = 0
KJU1 241114Z 18004KT 17/16 A2985 RMK A01 T01740162  RH  093%=      5-min Rain = 0
KJU1 241115Z 18004KT 17/16 A2985 RMK A01 T01740162  RH  093%=      5-min Rain = 0
KJU1 241116Z 18004KT 17/16 A2985 RMK A01 T01730161  RH  093%=      5-min Rain = 0
KJU1 241117Z 19005KT 17/16 A2985 RMK A01 T01730161  RH  093%=      5-min Rain = 0
KJU1 241118Z 19005KT 17/16 A2985 RMK A01 T01720160  RH  093%=      5-min Rain = 0
KJU1 241119Z 19005KT 17/16 A2985 RMK A01 T01710160  RH  093%=      5-min Rain = 0
KJU1 241120Z 19004KT 17/16 A2985 RMK A01 T01710160  RH  094%=      5-min Rain = 0
KJU1 241121Z 18004KT 17/16 A2985 RMK A01 T01700160  RH  094%=      5-min Rain = 0
KJU1 241122Z 18004KT 17/16 A2985 RMK A01 T01700161  RH  094%=      5-min Rain = 0
KJU1 241123Z 18003KT 17/16 A2986 RMK A01 T01700160  RH  094%=      5-min Rain = 0
KJU1 241124Z 19003KT 17/16 A2986 RMK A01 T01690160  RH  094%=      5-min Rain = 0
KJU1 241125Z 18003KT 17/16 A2986 RMK A01 T01690160  RH  094%=      5-min Rain = 0
KJU1 241126Z 18003KT 17/16 A2986 RMK A01 T01690159  RH  094%=      5-min Rain = 0
KJU1 241127Z 19003KT 17/16 A2986 RMK A01 T01680159  RH  094%=      5-min Rain = 0
KJU1 241128Z 19003KT 17/16 A2986 RMK A01 T01680159  RH  095%=      5-min Rain = 0
KJU1 241129Z 17002KT 17/16 A2986 RMK A01 T01670158  RH  095%=      5-min Rain = 0
KJU1 241130Z 17003KT 17/16 A2986 RMK A01 T01670158  RH  095%=      5-min Rain = 0
KJU1 241131Z 17003KT 17/16 A2986 RMK A01 T01670159  RH  095%=      5-min Rain = 0
KJU1 241132Z 17004KT 17/16 A2987 RMK A01 T01660158  RH  095%=      5-min Rain = 0
KJU1 241133Z 17004KT 17/16 A2987 RMK A01 T01660159  RH  095%=      5-min Rain = 0
KJU1 241134Z 17005KT 17/16 A2987 RMK A01 T01660159  RH  096%=      5-min Rain = 0
KJU1 241135Z 18004KT 17/16 A2987 RMK A01 T01660159  RH  096%=      5-min Rain = 0
KJU1 241136Z 18005KT 17/16 A2987 RMK A01 T01660160  RH  096%=      5-min Rain = 0
KJU1 241137Z 18005KT 17/16 A2987 RMK A01 T01660159  RH  096%=      5-min Rain = 0
KJU1 241138Z 18005KT 17/16 A2988 RMK A01 T01660160  RH  096%=      5-min Rain = 0
KJU1 241139Z 18005KT 17/16 A2987 RMK A01 T01650160  RH  096%=      5-min Rain = 0
KJU1 241140Z 17004KT 17/16 A2987 RMK A01 T01660160  RH  096%=      5-min Rain = 0
KJU1 241141Z 16004KT 17/16 A2987 RMK A01 T01660160  RH  096%=      5-min Rain = 0
KJU1 241142Z 17005KT 17/16 A2988 RMK A01 T01660160  RH  096%=      5-min Rain = 0
KJU1 241143Z 18005KT 17/16 A2988 RMK A01 T01660161  RH  096%=      5-min Rain = 0
KJU1 241144Z 18005KT 17/16 A2988 RMK A01 T01670161  RH  096%=      5-min Rain = 0
KJU1 241145Z 18003KT 17/16 A2988 RMK A01 T01660161  RH  096%=      5-min Rain = 0
KJU1 241146Z 17002KT 17/16 A2987 RMK A01 T01660160  RH  096%=      5-min Rain = 0
KJU1 241147Z 18003KT 17/16 A2988 RMK A01 T01660160  RH  096%=      5-min Rain = 0
KJU1 241148Z 18003KT 17/16 A2988 RMK A01 T01660161  RH  097%=      5-min Rain = 0
KJU1 241149Z 18004KT 17/16 A2988 RMK A01 T01660161  RH  096%=      5-min Rain = 0
KJU1 241150Z 17003KT 17/16 A2988 RMK A01 T01660160  RH  096%=      5-min Rain = 0
KJU1 241151Z 17003KT 17/16 A2988 RMK A01 T01660161  RH  097%=      5-min Rain = 0
KJU1 241152Z 16003KT 17/16 A2988 RMK A01 T01660161  RH  097%=      5-min Rain = 0
KJU1 241153Z 17003KT 17/16 A2988 RMK A01 T01660161  RH  097%=      5-min Rain = 0
KJU1 241154Z 17003KT 17/16 A2989 RMK A01 T01670161  RH  097%=      5-min Rain = 0
KJU1 241155Z 17003KT 17/16 A2989 RMK A01 T01670162  RH  097%=      5-min Rain = 0
KJU1 241156Z 16002KT 17/16 A2989 RMK A01 T01670162  RH  097%=      5-min Rain = 0
KJU1 241157Z 17003KT 17/16 A2989 RMK A01 T01670162  RH  097%=      5-min Rain = 0
KJU1 241158Z 17003KT 17/16 A2989 RMK A01 T01680163  RH  097%=      5-min Rain = 0
KJU1 241159Z 18002KT 17/16 A2989 RMK A01 T01680163  RH  096%=      5-min Rain = 0
KJU1 241200Z 18002KT 17/16 A2989 RMK A01 T01680162  RH  096%=      5-min Rain = 0
KJU1 241201Z 18002KT 17/16 A299 RMK A01 T01680162  RH  096%=      5-min Rain = 0
KJU1 241202Z 18001KT 17/16 A299 RMK A01 T01680162  RH  096%=      5-min Rain = 0
KJU1 241203Z 16001KT 17/16 A299 RMK A01 T01680161  RH  096%=      5-min Rain = 0
KJU1 241204Z 16001KT 17/16 A299 RMK A01 T01680161  RH  096%=      5-min Rain = 0
KJU1 241205Z 18000KT 17/16 A299 RMK A01 T01680162  RH  096%=      5-min Rain = 0
KJU1 241206Z 14001KT 17/16 A299 RMK A01 T01690163  RH  096%=      5-min Rain = 0
KJU1 241207Z 12001KT 17/16 A299 RMK A01 T01700163  RH  096%=      5-min Rain = 0
KJU1 241208Z 13001KT 17/16 A299 RMK A01 T01700163  RH  096%=      5-min Rain = 0
KJU1 241209Z 09000KT 17/16 A299 RMK A01 T01710163  RH  096%=      5-min Rain = 0
KJU1 241210Z 10001KT 17/16 A299 RMK A01 T01710163  RH  095%=      5-min Rain = 0
KJU1 241211Z 10002KT 17/16 A2991 RMK A01 T01710163  RH  095%=      5-min Rain = 0
KJU1 241212Z 07001KT 17/16 A2991 RMK A01 T01720163  RH  094%=      5-min Rain = 0
KJU1 241213Z 06001KT 17/16 A2991 RMK A01 T01720163  RH  094%=      5-min Rain = 0
KJU1 241214Z 05001KT 17/16 A2991 RMK A01 T01720164  RH  095%=      5-min Rain = 0
KJU1 241215Z 05001KT 17/16 A2991 RMK A01 T01730164  RH  095%=      5-min Rain = 0
KJU1 241216Z 03001KT 17/17 A2991 RMK A01 T01740165  RH  095%=      5-min Rain = 0
KJU1 241217Z 02001KT 17/17 A2991 RMK A01 T01740165  RH  095%=      5-min Rain = 0
KJU1 241218Z 02001KT 18/17 A2991 RMK A01 T01750166  RH  095%=      5-min Rain = 0
KJU1 241219Z 02001KT 18/17 A2991 RMK A01 T01750166  RH  094%=      5-min Rain = 0
KJU1 241220Z 02001KT 18/17 A299 RMK A01 T01750166  RH  094%=      5-min Rain = 0
KJU1 241221Z 01001KT 18/17 A299 RMK A01 T01760166  RH  094%=      5-min Rain = 0
KJU1 241222Z 34001KT 18/17 A299 RMK A01 T01760166  RH  094%=      5-min Rain = 0
KJU1 241223Z 32001KT 18/17 A299 RMK A01 T01770167  RH  094%=      5-min Rain = 0
KJU1 241224Z 32000KT 18/17 A2991 RMK A01 T01780167  RH  093%=      5-min Rain = 0
KJU1 241225Z 05001KT 18/17 A2991 RMK A01 T01790168  RH  093%=      5-min Rain = 0
KJU1 241226Z 04001KT 18/17 A2991 RMK A01 T01800168  RH  093%=      5-min Rain = 0
KJU1 241227Z 03002KT 18/17 A2991 RMK A01 T01800168  RH  093%=      5-min Rain = 0
KJU1 241228Z 02002KT 18/17 A2991 RMK A01 T01810170  RH  093%=      5-min Rain = 0
KJU1 241229Z 02002KT 18/17 A299 RMK A01 T01820171  RH  093%=      5-min Rain = 0
KJU1 241230Z 03001KT 18/17 A299 RMK A01 T01830171  RH  092%=      5-min Rain = 0
KJU1 241231Z 02001KT 19/17 A299 RMK A01 T01850172  RH  093%=      5-min Rain = 0
KJU1 241232Z 36000KT 19/18 A2991 RMK A01 T01870175  RH  093%=      5-min Rain = 0
KJU1 241233Z 01001KT 19/18 A2991 RMK A01 T01880176  RH  093%=      5-min Rain = 0
KJU1 241234Z 02001KT 19/18 A2991 RMK A01 T01890176  RH  092%=      5-min Rain = 0
KJU1 241235Z 35001KT 19/18 A2991 RMK A01 T01910176  RH  091%=      5-min Rain = 0
KJU1 241236Z 36001KT 19/17 A2991 RMK A01 T01910174  RH  090%=      5-min Rain = 0
KJU1 241237Z 36002KT 19/17 A2991 RMK A01 T01910172  RH  089%=      5-min Rain = 0
KJU1 241238Z 36002KT 19/17 A2991 RMK A01 T01900171  RH  089%=      5-min Rain = 0
KJU1 241239Z 01002KT 19/17 A2991 RMK A01 T01900171  RH  089%=      5-min Rain = 0
KJU1 241240Z 36002KT 19/17 A2991 RMK A01 T01900171  RH  089%=      5-min Rain = 0
KJU1 241241Z 34002KT 19/17 A2991 RMK A01 T01900171  RH  089%=      5-min Rain = 0
KJU1 241242Z 34001KT 19/17 A2991 RMK A01 T01910173  RH  089%=      5-min Rain = 0
KJU1 241243Z 35001KT 19/17 A2991 RMK A01 T01910174  RH  089%=      5-min Rain = 0
KJU1 241244Z 05001KT 19/17 A2991 RMK A01 T01920174  RH  089%=      5-min Rain = 0
KJU1 241245Z 05000KT 19/17 A2991 RMK A01 T01920174  RH  089%=      5-min Rain = 0
KJU1 241246Z 00000KT 19/17 A2991 RMK A01 T01930174  RH  089%=      5-min Rain = 0
KJU1 241247Z 30000KT 19/17 A2991 RMK A01 T01930173  RH  088%=      5-min Rain = 0
KJU1 241248Z 32000KT 19/17 A2991 RMK A01 T01930174  RH  089%=      5-min Rain = 0
KJU1 241249Z 03001KT 19/18 A2991 RMK A01 T01940175  RH  089%=      5-min Rain = 0
KJU1 241250Z 07001KT 19/17 A2991 RMK A01 T01940174  RH  088%=      5-min Rain = 0
KJU1 241251Z 07001KT 19/17 A2991 RMK A01 T01940174  RH  088%=      5-min Rain = 0
KJU1 241252Z 08001KT 20/17 A2991 RMK A01 T01950174  RH  088%=      5-min Rain = 0
KJU1 241253Z 07001KT 20/17 A2991 RMK A01 T01950174  RH  088%=      5-min Rain = 0
KJU1 241254Z 07001KT 20/17 A2991 RMK A01 T01950174  RH  088%=      5-min Rain = 0
KJU1 241255Z 08001KT 20/17 A2991 RMK A01 T01950174  RH  088%=      5-min Rain = 0
KJU1 241256Z 07001KT 20/17 A2991 RMK A01 T01950174  RH  088%=      5-min Rain = 0
KJU1 241257Z 11001KT 20/18 A2991 RMK A01 T01960175  RH  088%=      5-min Rain = 0
KJU1 241258Z 12003KT 20/18 A2991 RMK A01 T01960175  RH  088%=      5-min Rain = 0
KJU1 241259Z 14003KT 20/18 A2991 RMK A01 T01960176  RH  088%=      5-min Rain = 0
KJU1 241300Z 13003KT 20/18 A2991 RMK A01 T01960176  RH  088%=      5-min Rain = 0
KJU1 241301Z 12003KT 20/18 A2991 RMK A01 T01970177  RH  088%=      5-min Rain = 0
KJU1 241302Z 12002KT 20/18 A2991 RMK A01 T01980177  RH  088%=      5-min Rain = 0
KJU1 241303Z 12003KT 20/18 A2991 RMK A01 T01990178  RH  088%=      5-min Rain = 0
KJU1 241304Z 12004KT 20/18 A2991 RMK A01 T01990176  RH  087%=      5-min Rain = 0
KJU1 241305Z 15004KT 20/18 A2991 RMK A01 T01990175  RH  086%=      5-min Rain = 0
KJU1 241306Z 15004KT 20/18 A2991 RMK A01 T01990175  RH  086%=      5-min Rain = 0
KJU1 241307Z 15003KT 20/18 A2991 RMK A01 T02000176  RH  086%=      5-min Rain = 0
KJU1 241308Z 15004KT 20/18 A2991 RMK A01 T02000176  RH  086%=      5-min Rain = 0
KJU1 241309Z 13002KT 20/18 A2991 RMK A01 T02000175  RH  085%=      5-min Rain = 0
KJU1 241310Z 15004KT 20/18 A2991 RMK A01 T02000176  RH  086%=      5-min Rain = 0
KJU1 241311Z 10002KT 20/18 A2991 RMK A01 T02000175  RH  085%=      5-min Rain = 0
KJU1 241312Z 11001KT 20/18 A2991 RMK A01 T02010176  RH  086%=      5-min Rain = 0
KJU1 241313Z 14002KT 20/18 A2991 RMK A01 T02020178  RH  086%=      5-min Rain = 0
KJU1 241314Z 14003KT 20/18 A2991 RMK A01 T02030178  RH  085%=      5-min Rain = 0
KJU1 241315Z 18002KT 21/18 A2991 RMK A01 T02050180  RH  085%=      5-min Rain = 0
KJU1 241316Z 20003KT 21/18 A2991 RMK A01 T02060180  RH  085%=      5-min Rain = 0
KJU1 241317Z 18002KT 21/18 A2991 RMK A01 T02060179  RH  084%=      5-min Rain = 0
KJU1 241318Z 20001KT 21/18 A299 RMK A01 T02070178  RH  084%=      5-min Rain = 0
KJU1 241319Z 19001KT 21/18 A299 RMK A01 T02070179  RH  084%=      5-min Rain = 0
KJU1 241320Z 20003KT 21/18 A299 RMK A01 T02080180  RH  084%=      5-min Rain = 0
KJU1 241321Z 20001KT 21/18 A299 RMK A01 T02090178  RH  083%=      5-min Rain = 0
KJU1 241322Z 21001KT 21/18 A299 RMK A01 T02090177  RH  082%=      5-min Rain = 0
KJU1 241323Z 18001KT 21/18 A299 RMK A01 T02090177  RH  082%=      5-min Rain = 0
KJU1 241324Z 21001KT 21/18 A299 RMK A01 T02090177  RH  082%=      5-min Rain = 0
KJU1 241325Z 20002KT 21/18 A299 RMK A01 T02100179  RH  082%=      5-min Rain = 0
KJU1 241326Z 20002KT 21/18 A299 RMK A01 T02110178  RH  082%=      5-min Rain = 0
KJU1 241327Z 18003KT 21/18 A299 RMK A01 T02110178  RH  081%=      5-min Rain = 0
KJU1 241328Z 16001KT 21/18 A299 RMK A01 T02110176  RH  080%=      5-min Rain = 0
KJU1 241329Z 16002KT 21/18 A299 RMK A01 T02120176  RH  080%=      5-min Rain = 0
KJU1 241330Z 17003KT 21/18 A299 RMK A01 T02130179  RH  081%=      5-min Rain = 0
KJU1 241331Z 17004KT 21/18 A299 RMK A01 T02140176  RH  079%=      5-min Rain = 0
KJU1 241332Z 16003KT 21/18 A299 RMK A01 T02140176  RH  079%=      5-min Rain = 0
KJU1 241333Z 16003KT 21/18 A299 RMK A01 T02140180  RH  081%=      5-min Rain = 0
KJU1 241334Z 15006KT 22/18 A299 RMK A01 T02160178  RH  079%=      5-min Rain = 0
KJU1 241335Z 14005KT 22/18 A299 RMK A01 T02170177  RH  078%=      5-min Rain = 0
KJU1 241336Z 16004KT 22/18 A299 RMK A01 T02180176  RH  077%=      5-min Rain = 0
KJU1 241337Z 17004KT 22/18 A299 RMK A01 T02180176  RH  077%=      5-min Rain = 0
KJU1 241338Z 14003KT 22/18 A2989 RMK A01 T02190176  RH  076%=      5-min Rain = 0
KJU1 241339Z 15005KT 22/18 A299 RMK A01 T02200176  RH  076%=      5-min Rain = 0
KJU1 241340Z 16005KT 22/18 A299 RMK A01 T02210177  RH  076%=      5-min Rain = 0
KJU1 241341Z 17005KT 22/18 A2989 RMK A01 T02220177  RH  075%=      5-min Rain = 0
KJU1 241342Z 18006KT 22/18 A2989 RMK A01 T02220176  RH  075%=      5-min Rain = 0
KJU1 241343Z 18006KT 22/18 A2989 RMK A01 T02230176  RH  075%=      5-min Rain = 0
KJU1 241344Z 17006KT 22/17 A2989 RMK A01 T02230174  RH  074%=      5-min Rain = 0
KJU1 241345Z 19007KT 22/18 A2989 RMK A01 T02230175  RH  074%=      5-min Rain = 0
KJU1 241346Z 18007KT 22/18 A2989 RMK A01 T02240175  RH  074%=      5-min Rain = 0
KJU1 241347Z 18008KT 22/17 A2989 RMK A01 T02240174  RH  073%=      5-min Rain = 0
KJU1 241348Z 17009KT 23/17 A2989 RMK A01 T02250172  RH  072%=      5-min Rain = 0
KJU1 241349Z 17008KT 22/17 A2989 RMK A01 T02240173  RH  072%=      5-min Rain = 0
KJU1 241350Z 18008KT 23/17 A2989 RMK A01 T02250172  RH  072%=      5-min Rain = 0
KJU1 241351Z 18006KT 23/17 A2989 RMK A01 T02250173  RH  072%=      5-min Rain = 0
KJU1 241352Z 18006KT 23/17 A2989 RMK A01 T02260173  RH  072%=      5-min Rain = 0
KJU1 241353Z 18007KT 23/17 A2989 RMK A01 T02260174  RH  072%=      5-min Rain = 0
KJU1 241354Z 19006KT 23/17 A2989 RMK A01 T02270173  RH  072%=      5-min Rain = 0
KJU1 241355Z 18006KT 23/17 A2989 RMK A01 T02270174  RH  072%=      5-min Rain = 0
KJU1 241356Z 17007KT 23/17 A299 RMK A01 T02280174  RH  071%=      5-min Rain = 0
KJU1 241357Z 17007KT 23/18 A299 RMK A01 T02290175  RH  071%=      5-min Rain = 0
KJU1 241358Z 17006KT 23/18 A299 RMK A01 T02310176  RH  071%=      5-min Rain = 0
KJU1 241359Z 18004KT 23/17 A299 RMK A01 T02310174  RH  070%=      5-min Rain = 0
KJU1 241400Z 18005KT 23/18 A299 RMK A01 T02320177  RH  071%=      5-min Rain = 0
KJU1 241401Z 18005KT 23/18 A299 RMK A01 T02330177  RH  071%=      5-min Rain = 0
KJU1 241402Z 18003KT 23/17 A299 RMK A01 T02330174  RH  070%=      5-min Rain = 0
KJU1 241403Z 16004KT 24/18 A299 RMK A01 T02350179  RH  071%=      5-min Rain = 0
KJU1 241404Z 17007KT 24/18 A299 RMK A01 T02360177  RH  069%=      5-min Rain = 0
KJU1 241405Z 16007KT 24/18 A299 RMK A01 T02370179  RH  070%=      5-min Rain = 0
KJU1 241406Z 18008KT 24/18 A299 RMK A01 T02380178  RH  069%=      5-min Rain = 0
KJU1 241407Z 19006KT 24/18 A299 RMK A01 T02390179  RH  069%=      5-min Rain = 0
KJU1 241408Z 16005KT 24/18 A299 RMK A01 T02390180  RH  069%=      5-min Rain = 0
KJU1 241409Z 19007KT 24/18 A299 RMK A01 T02390181  RH  070%=      5-min Rain = 0
KJU1 241410Z 19008KT 24/18 A299 RMK A01 T02400182  RH  070%=      5-min Rain = 0
KJU1 241411Z 18008KT 24/18 A299 RMK A01 T02390181  RH  070%=      5-min Rain = 0
KJU1 241412Z 17007KT 24/18 A299 RMK A01 T02390181  RH  070%=      5-min Rain = 0
KJU1 241413Z 17006KT 24/18 A299 RMK A01 T02380181  RH  070%=      5-min Rain = 0
KJU1 241414Z 19005KT 24/18 A299 RMK A01 T02380180  RH  070%=      5-min Rain = 0
KJU1 241415Z 19008KT 24/18 A299 RMK A01 T02380182  RH  071%=      5-min Rain = 0
KJU1 241416Z 17006KT 24/18 A299 RMK A01 T02370182  RH  071%=      5-min Rain = 0
KJU1 241417Z 16006KT 24/18 A299 RMK A01 T02370182  RH  071%=      5-min Rain = 0
KJU1 241418Z 18006KT 24/18 A299 RMK A01 T02360183  RH  072%=      5-min Rain = 0
KJU1 241419Z 18004KT 24/18 A299 RMK A01 T02360183  RH  072%=      5-min Rain = 0
KJU1 241420Z 18006KT 24/18 A299 RMK A01 T02360184  RH  073%=      5-min Rain = 0
KJU1 241421Z 16007KT 24/18 A299 RMK A01 T02360183  RH  072%=      5-min Rain = 0
KJU1 241422Z 16008KT 24/18 A299 RMK A01 T02360183  RH  072%=      5-min Rain = 0
KJU1 241423Z 16008KT 24/18 A299 RMK A01 T02360183  RH  072%=      5-min Rain = 0
KJU1 241424Z 18005KT 24/18 A299 RMK A01 T02380184  RH  072%=      5-min Rain = 0
KJU1 241425Z 19005KT 24/19 A299 RMK A01 T02390186  RH  072%=      5-min Rain = 0
KJU1 241426Z 17006KT 24/19 A299 RMK A01 T02420185  RH  071%=      5-min Rain = 0
KJU1 241427Z 17005KT 24/19 A299 RMK A01 T02430186  RH  071%=      5-min Rain = 0
KJU1 241428Z 18006KT 24/19 A299 RMK A01 T02440186  RH  070%=      5-min Rain = 0
KJU1 241429Z 17005KT 25/19 A299 RMK A01 T02450188  RH  071%=      5-min Rain = 0
KJU1 241430Z 17006KT 25/19 A299 RMK A01 T02460188  RH  070%=      5-min Rain = 0
KJU1 241431Z 15006KT 25/19 A299 RMK A01 T02470187  RH  069%=      5-min Rain = 0
KJU1 241432Z 15006KT 25/19 A299 RMK A01 T02480186  RH  069%=      5-min Rain = 0
KJU1 241433Z 17004KT 25/19 A299 RMK A01 T02490190  RH  069%=      5-min Rain = 0
KJU1 241434Z 18006KT 25/19 A299 RMK A01 T02510189  RH  069%=      5-min Rain = 0
KJU1 241435Z 19006KT 25/19 A299 RMK A01 T02520189  RH  068%=      5-min Rain = 0
KJU1 241436Z 19005KT 25/19 A299 RMK A01 T02520189  RH  068%=      5-min Rain = 0
KJU1 241437Z 21005KT 25/19 A299 RMK A01 T02530190  RH  068%=      5-min Rain = 0
KJU1 241438Z 18004KT 25/19 A299 RMK A01 T02530190  RH  068%=      5-min Rain = 0
KJU1 241439Z 16005KT 25/19 A299 RMK A01 T02540192  RH  069%=      5-min Rain = 0
KJU1 241440Z 17005KT 26/19 A299 RMK A01 T02560193  RH  068%=      5-min Rain = 0
KJU1 241441Z 15007KT 26/19 A299 RMK A01 T02580192  RH  067%=      5-min Rain = 0
KJU1 241442Z 16008KT 26/19 A299 RMK A01 T02580189  RH  066%=      5-min Rain = 0
KJU1 241443Z 16008KT 26/19 A299 RMK A01 T02570191  RH  067%=      5-min Rain = 0
KJU1 241444Z 16009KT 26/19 A299 RMK A01 T02570190  RH  066%=      5-min Rain = 0
KJU1 241445Z 15007KT 26/19 A299 RMK A01 T02560188  RH  066%=      5-min Rain = 0
KJU1 241446Z 16006KT 26/19 A299 RMK A01 T02560191  RH  067%=      5-min Rain = 0
KJU1 241447Z 15009KT 26/19 A299 RMK A01 T02570191  RH  067%=      5-min Rain = 0
KJU1 241448Z 16009KT 26/19 A299 RMK A01 T02580190  RH  066%=      5-min Rain = 0
KJU1 241449Z 16007KT 26/19 A299 RMK A01 T02580190  RH  066%=      5-min Rain = 0
KJU1 241450Z 15006KT 26/19 A299 RMK A01 T02570190  RH  066%=      5-min Rain = 0
KJU1 241451Z 15007KT 26/19 A299 RMK A01 T02580191  RH  067%=      5-min Rain = 0
KJU1 241452Z 16008KT 26/19 A299 RMK A01 T02590192  RH  067%=      5-min Rain = 0
KJU1 241453Z 17005KT 26/19 A299 RMK A01 T02590193  RH  067%=      5-min Rain = 0
KJU1 241454Z 17005KT 26/19 A299 RMK A01 T02590191  RH  066%=      5-min Rain = 0
KJU1 241455Z 19006KT 26/19 A299 RMK A01 T02590193  RH  067%=      5-min Rain = 0
KJU1 241456Z 18006KT 26/20 A299 RMK A01 T02590196  RH  068%=      5-min Rain = 0
KJU1 241457Z 19006KT 26/19 A299 RMK A01 T02610193  RH  066%=      5-min Rain = 0
KJU1 241458Z 18005KT 26/19 A299 RMK A01 T02600193  RH  066%=      5-min Rain = 0
KJU1 241459Z 18006KT 26/19 A299 RMK A01 T02600193  RH  067%=      5-min Rain = 0
KJU1 241500Z 21006G11KT 26/19 A299 RMK A01 T02590194  RH  067%=      5-min Rain = 0
KJU1 241501Z 18009KT 26/20 A299 RMK A01 T02590195  RH  068%=      5-min Rain = 0
KJU1 241502Z 17010KT 26/19 A299 RMK A01 T02590194  RH  067%=      5-min Rain = 0
KJU1 241503Z 17010KT 26/19 A299 RMK A01 T02590194  RH  067%=      5-min Rain = 0
KJU1 241504Z 16010G15KT 26/19 A299 RMK A01 T02590194  RH  067%=      5-min Rain = 0
KJU1 241505Z 18012KT 26/19 A299 RMK A01 T02600191  RH  066%=      5-min Rain = 0
KJU1 241506Z 17009KT 26/19 A299 RMK A01 T02610193  RH  066%=      5-min Rain = 0
KJU1 241507Z 17008KT 26/20 A299 RMK A01 T02630197  RH  067%=      5-min Rain = 0
KJU1 241508Z 18010G16KT 27/20 A299 RMK A01 T02670197  RH  066%=      5-min Rain = 0
KJU1 241509Z 17011KT 27/20 A299 RMK A01 T02670196  RH  065%=      5-min Rain = 0
KJU1 241510Z 19012G17KT 27/20 A299 RMK A01 T02670197  RH  065%=      5-min Rain = 0
KJU1 241511Z 19011KT 27/20 A299 RMK A01 T02650195  RH  065%=      5-min Rain = 0
KJU1 241512Z 19015KT 26/19 A299 RMK A01 T02630193  RH  066%=      5-min Rain = 0
KJU1 241513Z 19012KT 26/19 A299 RMK A01 T02610193  RH  066%=      5-min Rain = 0
KJU1 241514Z 18011KT 26/19 A299 RMK A01 T02600193  RH  067%=      5-min Rain = 0
KJU1 241515Z 18014KT 26/19 A299 RMK A01 T02610194  RH  067%=      5-min Rain = 0
KJU1 241516Z 18011KT 26/19 A299 RMK A01 T02610193  RH  066%=      5-min Rain = 0
KJU1 241517Z 17010KT 26/19 A299 RMK A01 T02610194  RH  067%=      5-min Rain = 0
KJU1 241518Z 18009KT 26/20 A299 RMK A01 T02610196  RH  067%=      5-min Rain = 0
KJU1 241519Z 18008KT 26/20 A299 RMK A01 T02600195  RH  067%=      5-min Rain = 0
KJU1 241520Z 17010KT 26/20 A299 RMK A01 T02590195  RH  068%=      5-min Rain = 0
KJU1 241521Z 17008KT 26/20 A299 RMK A01 T02590195  RH  068%=      5-min Rain = 0
KJU1 241522Z 17011KT 26/19 A299 RMK A01 T02590194  RH  068%=      5-min Rain = 0
KJU1 241523Z 19011KT 26/19 A299 RMK A01 T02590194  RH  067%=      5-min Rain = 0
KJU1 241524Z 19011KT 26/19 A299 RMK A01 T02590193  RH  067%=      5-min Rain = 0
KJU1 241525Z 17009KT 26/19 A299 RMK A01 T02600193  RH  067%=      5-min Rain = 0
KJU1 241526Z 18008KT 26/19 A299 RMK A01 T02600194  RH  067%=      5-min Rain = 0
KJU1 241527Z 17011G16KT 26/20 A299 RMK A01 T02630195  RH  066%=      5-min Rain = 0
KJU1 241528Z 18012KT 26/19 A299 RMK A01 T02640194  RH  065%=      5-min Rain = 0
KJU1 241529Z 18008KT 27/20 A299 RMK A01 T02650195  RH  066%=      5-min Rain = 0
KJU1 241530Z 18009KT 27/20 A299 RMK A01 T02650195  RH  066%=      5-min Rain = 0
KJU1 241531Z 18010KT 27/19 A299 RMK A01 T02650194  RH  065%=      5-min Rain = 0
KJU1 241532Z 18009KT 26/20 A299 RMK A01 T02640195  RH  066%=      5-min Rain = 0
KJU1 241533Z 17007KT 27/20 A299 RMK A01 T02650196  RH  066%=      5-min Rain = 0
KJU1 241534Z 16008KT 27/20 A299 RMK A01 T02660196  RH  065%=      5-min Rain = 0
KJU1 241535Z 18005KT 27/20 A299 RMK A01 T02660196  RH  065%=      5-min Rain = 0
KJU1 241536Z 16006KT 27/20 A299 RMK A01 T02660198  RH  066%=      5-min Rain = 0
KJU1 241537Z 17008KT 27/20 A299 RMK A01 T02670197  RH  065%=      5-min Rain = 0
KJU1 241538Z 17012KT 27/20 A299 RMK A01 T02700198  RH  065%=      5-min Rain = 0
KJU1 241539Z 18008KT 27/20 A299 RMK A01 T02700195  RH  064%=      5-min Rain = 0
KJU1 241540Z 18011KT 27/20 A299 RMK A01 T02690197  RH  065%=      5-min Rain = 0
KJU1 241541Z 19009KT 27/19 A299 RMK A01 T02670193  RH  064%=      5-min Rain = 0
KJU1 241542Z 18008KT 27/19 A299 RMK A01 T02660194  RH  064%=      5-min Rain = 0
KJU1 241543Z 18007KT 27/20 A299 RMK A01 T02680196  RH  065%=      5-min Rain = 0
KJU1 241544Z 18008KT 27/20 A299 RMK A01 T02710198  RH  065%=      5-min Rain = 0
KJU1 241545Z 18011KT 27/20 A299 RMK A01 T02740198  RH  063%=      5-min Rain = 0
KJU1 241546Z 19010KT 27/20 A299 RMK A01 T02740197  RH  063%=      5-min Rain = 0
KJU1 241547Z 18010KT 28/20 A299 RMK A01 T02750198  RH  063%=      5-min Rain = 0
KJU1 241548Z 16010KT 28/20 A299 RMK A01 T02750196  RH  062%=      5-min Rain = 0
KJU1 241549Z 16010KT 27/19 A299 RMK A01 T02720193  RH  062%=      5-min Rain = 0
KJU1 241550Z 16010KT 27/19 A299 RMK A01 T02690193  RH  063%=      5-min Rain = 0
KJU1 241551Z 15011KT 27/19 A299 RMK A01 T02680194  RH  064%=      5-min Rain = 0
KJU1 241552Z 16011KT 27/20 A299 RMK A01 T02670195  RH  065%=      5-min Rain = 0
KJU1 241553Z 19010KT 27/20 A299 RMK A01 T02670195  RH  065%=      5-min Rain = 0
KJU1 241554Z 19009KT 27/20 A299 RMK A01 T02660196  RH  065%=      5-min Rain = 0
KJU1 241555Z 19011KT 27/20 A2989 RMK A01 T02660196  RH  065%=      5-min Rain = 0
KJU1 241556Z 19009KT 27/20 A2989 RMK A01 T02660195  RH  065%=      5-min Rain = 0
KJU1 241557Z 19009KT 27/20 A2989 RMK A01 T02660196  RH  065%=      5-min Rain = 0
KJU1 241558Z 18010KT 26/20 A2989 RMK A01 T02640195  RH  066%=      5-min Rain = 0
KJU1 241559Z 17008KT 26/20 A2989 RMK A01 T02630196  RH  066%=      5-min Rain = 0
KJU1 241600Z 18007KT 26/20 A2989 RMK A01 T02630197  RH  067%=      5-min Rain = 0
KJU1 241601Z 17008KT 26/20 A2989 RMK A01 T02640196  RH  066%=      5-min Rain = 0
KJU1 241602Z 18008KT 27/20 A2989 RMK A01 T02660198  RH  066%=      5-min Rain = 0
KJU1 241603Z 17007KT 27/20 A2989 RMK A01 T02690195  RH  064%=      5-min Rain = 0
KJU1 241604Z 16008KT 27/20 A2989 RMK A01 T02700195  RH  064%=      5-min Rain = 0
KJU1 241605Z 17009G14KT 27/20 A2989 RMK A01 T02700195  RH  064%=      5-min Rain = 0
KJU1 241606Z 17011KT 27/19 A2989 RMK A01 T02690194  RH  063%=      5-min Rain = 0
KJU1 241607Z 17011KT 27/19 A2989 RMK A01 T02690193  RH  063%=      5-min Rain = 0
KJU1 241608Z 18009KT 27/19 A2989 RMK A01 T02680193  RH  063%=      5-min Rain = 0
KJU1 241609Z 18011KT 27/19 A2989 RMK A01 T02700194  RH  063%=      5-min Rain = 0
KJU1 241610Z 18011KT 27/19 A2989 RMK A01 T02720193  RH  062%=      5-min Rain = 0
KJU1 241611Z 17008KT 27/19 A2989 RMK A01 T02720194  RH  062%=      5-min Rain = 0
KJU1 241612Z 19009KT 27/19 A2989 RMK A01 T02730194  RH  062%=      5-min Rain = 0
KJU1 241613Z 18009KT 27/19 A2989 RMK A01 T02730194  RH  062%=      5-min Rain = 0
KJU1 241614Z 16007KT 27/20 A2989 RMK A01 T02730195  RH  063%=      5-min Rain = 0
KJU1 241615Z 19007KT 27/20 A2989 RMK A01 T02740200  RH  064%=      5-min Rain = 0
KJU1 241616Z 17008KT 28/20 A2989 RMK A01 T02770199  RH  062%=      5-min Rain = 0
KJU1 241617Z 16007KT 28/20 A2989 RMK A01 T02770195  RH  061%=      5-min Rain = 0
KJU1 241618Z 17009KT 27/20 A2989 RMK A01 T02740196  RH  062%=      5-min Rain = 0
KJU1 241619Z 19010G15KT 27/19 A2989 RMK A01 T02730194  RH  062%=      5-min Rain = 0
KJU1 241620Z 20011KT 27/20 A2989 RMK A01 T02730195  RH  063%=      5-min Rain = 0
KJU1 241621Z 19009KT 27/20 A2989 RMK A01 T02740197  RH  063%=      5-min Rain = 0
KJU1 241622Z 20007KT 28/20 A2989 RMK A01 T02750196  RH  062%=      5-min Rain = 0
KJU1 241623Z 17007G14KT 27/20 A2989 RMK A01 T02730197  RH  063%=      5-min Rain = 0
KJU1 241624Z 17012KT 27/20 A2989 RMK A01 T02720195  RH  063%=      5-min Rain = 0
KJU1 241625Z 16010KT 27/19 A2989 RMK A01 T02700194  RH  063%=      5-min Rain = 0
KJU1 241626Z 17010KT 27/20 A2989 RMK A01 T02690195  RH  064%=      5-min Rain = 0
KJU1 241627Z 17014KT 27/19 A2989 RMK A01 T02690193  RH  063%=      5-min Rain = 0
KJU1 241628Z 17011KT 27/19 A2989 RMK A01 T02700191  RH  062%=      5-min Rain = 0
KJU1 241629Z 16014KT 27/19 A2989 RMK A01 T02700191  RH  062%=      5-min Rain = 0
KJU1 241630Z 16010KT 27/19 A2989 RMK A01 T02700192  RH  062%=      5-min Rain = 0
KJU1 241631Z 17010KT 27/19 A2989 RMK A01 T02720192  RH  062%=      5-min Rain = 0
KJU1 241632Z 16010KT 27/19 A2989 RMK A01 T02740193  RH  061%=      5-min Rain = 0
KJU1 241633Z 17010KT 28/20 A2989 RMK A01 T02790197  RH  061%=      5-min Rain = 0
KJU1 241634Z 16008KT 28/20 A2989 RMK A01 T02820198  RH  060%=      5-min Rain = 0
KJU1 241635Z 18011G16KT 28/20 A2989 RMK A01 T02840197  RH  059%=      5-min Rain = 0
KJU1 241636Z 18010G15KT 28/20 A2989 RMK A01 T02840195  RH  058%=      5-min Rain = 0
KJU1 241637Z 17009KT 28/19 A2989 RMK A01 T02820194  RH  059%=      5-min Rain = 0
KJU1 241638Z 16007KT 28/19 A2989 RMK A01 T02800193  RH  059%=      5-min Rain = 0
KJU1 241639Z 18006G11KT 28/20 A2989 RMK A01 T02810198  RH  061%=      5-min Rain = 0
KJU1 241640Z 19013G18KT 28/19 A2989 RMK A01 T02830194  RH  058%=      5-min Rain = 0
KJU1 241641Z 20012KT 28/19 A2989 RMK A01 T02810193  RH  059%=      5-min Rain = 0
KJU1 241642Z 19012KT 28/19 A2989 RMK A01 T02780192  RH  060%=      5-min Rain = 0
KJU1 241643Z 19011KT 28/19 A2989 RMK A01 T02750192  RH  061%=      5-min Rain = 0
KJU1 241644Z 18011KT 28/19 A2989 RMK A01 T02750192  RH  061%=      5-min Rain = 0
KJU1 241645Z 18010KT 27/19 A2989 RMK A01 T02740190  RH  060%=      5-min Rain = 0
KJU1 241646Z 19010KT 27/19 A2989 RMK A01 T02740192  RH  061%=      5-min Rain = 0
KJU1 241647Z 19010KT 27/19 A2989 RMK A01 T02730191  RH  061%=      5-min Rain = 0
KJU1 241648Z 19009KT 27/19 A2989 RMK A01 T02740191  RH  061%=      5-min Rain = 0
KJU1 241649Z 20009KT 28/19 A2989 RMK A01 T02760192  RH  060%=      5-min Rain = 0
KJU1 241650Z 19007KT 28/19 A2989 RMK A01 T02750192  RH  060%=      5-min Rain = 0
KJU1 241651Z 20008KT 27/19 A2989 RMK A01 T02740192  RH  061%=      5-min Rain = 0
KJU1 241652Z 20011KT 27/19 A2989 RMK A01 T02740193  RH  061%=      5-min Rain = 0
KJU1 241653Z 20009KT 28/19 A2989 RMK A01 T02750191  RH  060%=      5-min Rain = 0
KJU1 241654Z 19007KT 27/19 A2989 RMK A01 T02740191  RH  060%=      5-min Rain = 0
KJU1 241655Z 19008KT 27/19 A2989 RMK A01 T02730192  RH  061%=      5-min Rain = 0
KJU1 241656Z 21006KT 27/20 A2989 RMK A01 T02730195  RH  062%=      5-min Rain = 0
KJU1 241657Z 20007KT 27/19 A2989 RMK A01 T02720194  RH  062%=      5-min Rain = 0
KJU1 241658Z 19009KT 27/19 A2989 RMK A01 T02710192  RH  062%=      5-min Rain = 0
KJU1 241659Z 21007KT 27/19 A2989 RMK A01 T02700194  RH  063%=      5-min Rain = 0
KJU1 241700Z 20011KT 27/20 A2989 RMK A01 T02710195  RH  063%=      5-min Rain = 0
KJU1 241701Z 21011KT 27/19 A2989 RMK A01 T02720194  RH  062%=      5-min Rain = 0
KJU1 241702Z 20011KT 27/19 A2989 RMK A01 T02730193  RH  062%=      5-min Rain = 0
KJU1 241703Z 20012KT 27/19 A2989 RMK A01 T02720190  RH  061%=      5-min Rain = 0
KJU1 241704Z 20010KT 27/19 A2989 RMK A01 T02710189  RH  061%=      5-min Rain = 0
KJU1 241705Z 20010KT 27/19 A2989 RMK A01 T02690189  RH  061%=      5-min Rain = 0
KJU1 241706Z 20008KT 27/19 A2989 RMK A01 T02690191  RH  062%=      5-min Rain = 0
KJU1 241707Z 19014KT 27/19 A2989 RMK A01 T02700191  RH  062%=      5-min Rain = 0
KJU1 241708Z 19013KT 27/19 A2989 RMK A01 T02710189  RH  061%=      5-min Rain = 0
KJU1 241709Z 19011KT 27/19 A2989 RMK A01 T02710190  RH  061%=      5-min Rain = 0
KJU1 241710Z 19009KT 27/19 A2989 RMK A01 T02710191  RH  061%=      5-min Rain = 0
KJU1 241711Z 20009KT 27/19 A2989 RMK A01 T02720193  RH  062%=      5-min Rain = 0
KJU1 241712Z 20009KT 28/20 A2988 RMK A01 T02760195  RH  061%=      5-min Rain = 0
KJU1 241713Z 17008KT 28/20 A2989 RMK A01 T02800199  RH  061%=      5-min Rain = 0
KJU1 241714Z 16009KT 28/20 A2988 RMK A01 T02840196  RH  059%=      5-min Rain = 0
KJU1 241715Z 20009KT 29/20 A2988 RMK A01 T02850198  RH  059%=      5-min Rain = 0
KJU1 241716Z 20012KT 29/20 A2988 RMK A01 T02860197  RH  059%=      5-min Rain = 0
KJU1 241717Z 18010KT 29/20 A2988 RMK A01 T02850197  RH  059%=      5-min Rain = 0
KJU1 241718Z 16009KT 29/20 A2988 RMK A01 T02850195  RH  058%=      5-min Rain = 0
KJU1 241719Z 18010KT 29/19 A2988 RMK A01 T02860193  RH  057%=      5-min Rain = 0
KJU1 241720Z 19010KT 29/19 A2988 RMK A01 T02870190  RH  056%=      5-min Rain = 0
KJU1 241721Z 19013KT 29/19 A2988 RMK A01 T02870189  RH  055%=      5-min Rain = 0
KJU1 241722Z 19012KT 29/19 A2988 RMK A01 T02860190  RH  056%=      5-min Rain = 0
KJU1 241723Z 19010KT 28/19 A2988 RMK A01 T02830189  RH  057%=      5-min Rain = 0
KJU1 241724Z 19010KT 28/19 A2988 RMK A01 T02810189  RH  057%=      5-min Rain = 0
KJU1 241725Z 20011KT 28/19 A2988 RMK A01 T02800188  RH  057%=      5-min Rain = 0
KJU1 241726Z 18011KT 28/19 A2988 RMK A01 T02790191  RH  058%=      5-min Rain = 0
KJU1 241727Z 17009KT 28/19 A2988 RMK A01 T02800188  RH  057%=      5-min Rain = 0
KJU1 241728Z 18010KT 28/19 A2988 RMK A01 T02800188  RH  057%=      5-min Rain = 0
KJU1 241729Z 19011KT 28/19 A2988 RMK A01 T02800188  RH  057%=      5-min Rain = 0
KJU1 241730Z 19011KT 28/19 A2988 RMK A01 T02800186  RH  057%=      5-min Rain = 0
KJU1 241731Z 19010KT 28/19 A2988 RMK A01 T02810187  RH  057%=      5-min Rain = 0
KJU1 241732Z 19014KT 28/19 A2988 RMK A01 T02820186  RH  056%=      5-min Rain = 0
KJU1 241733Z 20010KT 28/19 A2988 RMK A01 T02830187  RH  056%=      5-min Rain = 0
KJU1 241734Z 20008KT 28/19 A2988 RMK A01 T02820188  RH  057%=      5-min Rain = 0
KJU1 241735Z 18014KT 28/19 A2988 RMK A01 T02820188  RH  057%=      5-min Rain = 0
KJU1 241736Z 17009KT 28/19 A2988 RMK A01 T02840189  RH  057%=      5-min Rain = 0
KJU1 241737Z 17011KT 29/19 A2988 RMK A01 T02870191  RH  056%=      5-min Rain = 0
KJU1 241738Z 16013KT 29/19 A2987 RMK A01 T02890187  RH  054%=      5-min Rain = 0
KJU1 241739Z 16010KT 29/19 A2987 RMK A01 T02870186  RH  054%=      5-min Rain = 0
KJU1 241740Z 17009KT 29/19 A2987 RMK A01 T02860188  RH  056%=      5-min Rain = 0
KJU1 241741Z 20009KT 29/19 A2987 RMK A01 T02870190  RH  056%=      5-min Rain = 0
KJU1 241742Z 19008KT 29/20 A2987 RMK A01 T02880195  RH  057%=      5-min Rain = 0
KJU1 241743Z 21009KT 29/20 A2987 RMK A01 T02910198  RH  057%=      5-min Rain = 0
KJU1 241744Z 20005KT 29/20 A2987 RMK A01 T02910197  RH  057%=      5-min Rain = 0
KJU1 241745Z 20007KT 29/20 A2987 RMK A01 T02890195  RH  057%=      5-min Rain = 0
KJU1 241746Z 19010G15KT 29/20 A2987 RMK A01 T02880197  RH  058%=      5-min Rain = 0
KJU1 241747Z 20010G15KT 29/19 A2987 RMK A01 T02920193  RH  055%=      5-min Rain = 0
KJU1 241748Z 17008KT 29/19 A2987 RMK A01 T02930194  RH  055%=      5-min Rain = 0
KJU1 241749Z 18008G13KT 30/19 A2987 RMK A01 T02950191  RH  053%=      5-min Rain = 0
KJU1 241750Z 19008KT 30/20 A2987 RMK A01 T02980195  RH  054%=      5-min Rain = 0
KJU1 241751Z 20013G20KT 30/19 A2987 RMK A01 T03010192  RH  052%=      5-min Rain = 0
KJU1 241752Z 20013KT 30/19 A2987 RMK A01 T03000186  RH  050%=      5-min Rain = 0
KJU1 241753Z 19014KT 29/18 A2987 RMK A01 T02940181  RH  051%=      5-min Rain = 0
KJU1 241754Z 18010KT 29/18 A2987 RMK A01 T02890181  RH  052%=      5-min Rain = 0
KJU1 241755Z 17009G15KT 29/18 A2987 RMK A01 T02870183  RH  053%=      5-min Rain = 0
KJU1 241756Z 18011G16KT 29/18 A2987 RMK A01 T02870184  RH  054%=      5-min Rain = 0
KJU1 241757Z 19006KT 29/19 A2987 RMK A01 T02900191  RH  055%=      5-min Rain = 0
KJU1 241758Z 19010KT 30/19 A2986 RMK A01 T02970193  RH  054%=      5-min Rain = 0
KJU1 241759Z 17009KT 30/19 A2986 RMK A01 T02990187  RH  051%=      5-min Rain = 0
KJU1 241800Z 17009KT 30/19 A2986 RMK A01 T02980187  RH  052%=      5-min Rain = 0
KJU1 241801Z 17009KT 30/19 A2986 RMK A01 T02970188  RH  052%=      5-min Rain = 0
KJU1 241802Z 17010KT 30/19 A2986 RMK A01 T02960189  RH  053%=      5-min Rain = 0
KJU1 241803Z 15011KT 30/19 A2986 RMK A01 T02950188  RH  052%=      5-min Rain = 0
KJU1 241804Z 17010KT 29/19 A2986 RMK A01 T02940187  RH  052%=      5-min Rain = 0
KJU1 241805Z 16012KT 29/19 A2986 RMK A01 T02930188  RH  053%=      5-min Rain = 0
KJU1 241806Z 16009KT 29/19 A2986 RMK A01 T02920188  RH  054%=      5-min Rain = 0
KJU1 241807Z 15009KT 29/19 A2986 RMK A01 T02920188  RH  054%=      5-min Rain = 0
KJU1 241808Z 16011KT 30/19 A2986 RMK A01 T02950190  RH  053%=      5-min Rain = 0
KJU1 241809Z 17012KT 30/19 A2986 RMK A01 T02970191  RH  053%=      5-min Rain = 0
KJU1 241810Z 16013KT 30/19 A2986 RMK A01 T02980190  RH  052%=      5-min Rain = 0
KJU1 241811Z 16011KT 30/19 A2986 RMK A01 T02990189  RH  052%=      5-min Rain = 0
KJU1 241812Z 16013KT 30/19 A2986 RMK A01 T02980190  RH  052%=      5-min Rain = 0
KJU1 241813Z 16010KT 30/19 A2986 RMK A01 T02970186  RH  052%=      5-min Rain = 0
KJU1 241814Z 17009KT 30/19 A2986 RMK A01 T02950188  RH  053%=      5-min Rain = 0
KJU1 241815Z 16009KT 30/19 A2986 RMK A01 T02950189  RH  053%=      5-min Rain = 0
KJU1 241816Z 16011KT 30/19 A2986 RMK A01 T02970190  RH  053%=      5-min Rain = 0
KJU1 241817Z 16010KT 30/19 A2986 RMK A01 T02960188  RH  052%=      5-min Rain = 0
KJU1 241818Z 19009KT 29/19 A2986 RMK A01 T02940189  RH  053%=      5-min Rain = 0
KJU1 241819Z 19010KT 29/19 A2986 RMK A01 T02920187  RH  053%=      5-min Rain = 0
KJU1 241820Z 20008KT 29/19 A2986 RMK A01 T02890187  RH  054%=      5-min Rain = 0
KJU1 241821Z 19010KT 29/19 A2986 RMK A01 T02880188  RH  055%=      5-min Rain = 0
KJU1 241822Z 18010KT 29/19 A2985 RMK A01 T02890185  RH  053%=      5-min Rain = 0
KJU1 241823Z 18008KT 29/19 A2985 RMK A01 T02890187  RH  054%=      5-min Rain = 0
KJU1 241824Z 19006KT 29/19 A2985 RMK A01 T02880190  RH  055%=      5-min Rain = 0
KJU1 241825Z 19008KT 29/19 A2985 RMK A01 T02890188  RH  054%=      5-min Rain = 0
KJU1 241826Z 19011KT 29/19 A2985 RMK A01 T02890189  RH  055%=      5-min Rain = 0
KJU1 241827Z 18009KT 29/19 A2985 RMK A01 T02900189  RH  054%=      5-min Rain = 0
KJU1 241828Z 18012KT 29/19 A2985 RMK A01 T02930190  RH  054%=      5-min Rain = 0
KJU1 241829Z 18010KT 29/19 A2985 RMK A01 T02940190  RH  054%=      5-min Rain = 0
KJU1 241830Z 17011KT 30/19 A2985 RMK A01 T02950190  RH  053%=      5-min Rain = 0
KJU1 241831Z 16011KT 30/19 A2985 RMK A01 T02960187  RH  052%=      5-min Rain = 0
KJU1 241832Z 16011KT 29/19 A2985 RMK A01 T02940186  RH  052%=      5-min Rain = 0
KJU1 241833Z 16010KT 29/19 A2985 RMK A01 T02920187  RH  053%=      5-min Rain = 0
KJU1 241834Z 18010KT 29/19 A2985 RMK A01 T02910190  RH  054%=      5-min Rain = 0
KJU1 241835Z 17007KT 29/19 A2985 RMK A01 T02930191  RH  054%=      5-min Rain = 0
KJU1 241836Z 17009G15KT 30/20 A2985 RMK A01 T02980195  RH  054%=      5-min Rain = 0
KJU1 241837Z 18012KT 30/19 A2985 RMK A01 T03010191  RH  052%=      5-min Rain = 0
KJU1 241838Z 17011KT 30/19 A2985 RMK A01 T02990187  RH  051%=      5-min Rain = 0
KJU1 241839Z 17011KT 30/18 A2984 RMK A01 T02950184  RH  051%=      5-min Rain = 0
KJU1 241840Z 18010KT 29/19 A2985 RMK A01 T02920187  RH  053%=      5-min Rain = 0
KJU1 241841Z 18008KT 29/19 A2984 RMK A01 T02920186  RH  053%=      5-min Rain = 0
KJU1 241842Z 18008KT 29/19 A2984 RMK A01 T02940188  RH  053%=      5-min Rain = 0
KJU1 241843Z 18009KT 30/19 A2984 RMK A01 T02950188  RH  053%=      5-min Rain = 0
KJU1 241844Z 17010KT 29/19 A2984 RMK A01 T02940189  RH  053%=      5-min Rain = 0
KJU1 241845Z 17007KT 29/19 A2984 RMK A01 T02940190  RH  053%=      5-min Rain = 0
KJU1 241846Z 19004KT 29/19 A2984 RMK A01 T02940193  RH  055%=      5-min Rain = 0
KJU1 241847Z 19006KT 30/20 A2984 RMK A01 T02950196  RH  055%=      5-min Rain = 0
KJU1 241848Z 19007KT 30/19 A2984 RMK A01 T02960194  RH  054%=      5-min Rain = 0
KJU1 241849Z 19006KT 30/19 A2984 RMK A01 T02950194  RH  054%=      5-min Rain = 0
KJU1 241850Z 17009KT 30/19 A2984 RMK A01 T02950193  RH  054%=      5-min Rain = 0
KJU1 241851Z 16011KT 29/19 A2984 RMK A01 T02930190  RH  054%=      5-min Rain = 0
KJU1 241852Z 19010KT 29/19 A2984 RMK A01 T02920191  RH  054%=      5-min Rain = 0
KJU1 241853Z 20007KT 30/20 A2984 RMK A01 T02950196  RH  055%=      5-min Rain = 0
KJU1 241854Z 19010KT 30/20 A2984 RMK A01 T02970197  RH  055%=      5-min Rain = 0
KJU1 241855Z 19013KT 30/19 A2984 RMK A01 T02980193  RH  053%=      5-min Rain = 0
KJU1 241856Z 20014KT 30/19 A2984 RMK A01 T02980193  RH  053%=      5-min Rain = 0
KJU1 241857Z 19010KT 30/19 A2984 RMK A01 T02990194  RH  053%=      5-min Rain = 0
KJU1 241858Z 20012KT 30/19 A2983 RMK A01 T03010194  RH  052%=      5-min Rain = 0
KJU1 241859Z 18010KT 30/19 A2983 RMK A01 T03020194  RH  052%=      5-min Rain = 0
KJU1 241900Z 20012G17KT 30/19 A2983 RMK A01 T03020193  RH  052%=      5-min Rain = 0
KJU1 241901Z 20013G18KT 30/19 A2983 RMK A01 T03000190  RH  052%=      5-min Rain = 0
KJU1 241902Z 19013KT 30/19 A2983 RMK A01 T02990192  RH  053%=      5-min Rain = 0
KJU1 241903Z 19014KT 30/19 A2983 RMK A01 T03010193  RH  052%=      5-min Rain = 0
KJU1 241904Z 20012KT 30/19 A2983 RMK A01 T03030193  RH  052%=      5-min Rain = 0
KJU1 241905Z 19013KT 30/20 A2983 RMK A01 T03040195  RH  052%=      5-min Rain = 0
KJU1 241906Z 21012KT 30/19 A2983 RMK A01 T03020193  RH  052%=      5-min Rain = 0
KJU1 241907Z 21012KT 30/19 A2983 RMK A01 T03000193  RH  053%=      5-min Rain = 0
KJU1 241908Z 21012KT 30/19 A2983 RMK A01 T02980191  RH  053%=      5-min Rain = 0
KJU1 241909Z 19012KT 30/19 A2983 RMK A01 T02960191  RH  053%=      5-min Rain = 0
KJU1 241910Z 18007KT 29/19 A2983 RMK A01 T02940192  RH  054%=      5-min Rain = 0
KJU1 241911Z 18006KT 29/19 A2982 RMK A01 T02940192  RH  054%=      5-min Rain = 0
KJU1 241912Z 19004KT 30/20 A2982 RMK A01 T02950196  RH  055%=      5-min Rain = 0
KJU1 241913Z 19005KT 30/20 A2982 RMK A01 T02990198  RH  055%=      5-min Rain = 0
KJU1 241914Z 19010G18KT 30/20 A2982 RMK A01 T03030199  RH  054%=      5-min Rain = 0
KJU1 241915Z 19012KT 31/19 A2982 RMK A01 T03060193  RH  051%=      5-min Rain = 0
KJU1 241916Z 19012KT 30/19 A2982 RMK A01 T03040187  RH  050%=      5-min Rain = 0
KJU1 241917Z 19010KT 30/19 A2982 RMK A01 T03000188  RH  051%=      5-min Rain = 0
KJU1 241918Z 19010KT 30/19 A2982 RMK A01 T03010193  RH  053%=      5-min Rain = 0
KJU1 241919Z 19013G18KT 31/19 A2982 RMK A01 T03050193  RH  051%=      5-min Rain = 0
KJU1 241920Z 19013KT 30/19 A2982 RMK A01 T03030188  RH  050%=      5-min Rain = 0
KJU1 241921Z 19011KT 30/19 A2982 RMK A01 T03010189  RH  051%=      5-min Rain = 0
KJU1 241922Z 19011KT 30/19 A2982 RMK A01 T03010186  RH  050%=      5-min Rain = 0
KJU1 241923Z 18010KT 30/19 A2981 RMK A01 T03000189  RH  051%=      5-min Rain = 0
KJU1 241924Z 16009KT 31/19 A2981 RMK A01 T03050194  RH  052%=      5-min Rain = 0
KJU1 241925Z 18008KT 31/20 A2981 RMK A01 T03090196  RH  051%=      5-min Rain = 0
KJU1 241926Z 17008KT 31/20 A2981 RMK A01 T03120196  RH  050%=      5-min Rain = 0
KJU1 241927Z 17010KT 31/19 A2981 RMK A01 T03120194  RH  050%=      5-min Rain = 0
KJU1 241928Z 16009KT 31/19 A2981 RMK A01 T03080192  RH  050%=      5-min Rain = 0
KJU1 241929Z 18012G17KT 31/19 A2981 RMK A01 T03050190  RH  050%=      5-min Rain = 0
KJU1 241930Z 19011KT 30/19 A2981 RMK A01 T03030189  RH  050%=      5-min Rain = 0
KJU1 241931Z 19012G17KT 30/19 A2981 RMK A01 T03030191  RH  051%=      5-min Rain = 0
KJU1 241932Z 19011KT 30/19 A2981 RMK A01 T03040190  RH  050%=      5-min Rain = 0
KJU1 241933Z 19013KT 31/19 A2981 RMK A01 T03050190  RH  050%=      5-min Rain = 0
KJU1 241934Z 18010G15KT 31/19 A2981 RMK A01 T03060193  RH  051%=      5-min Rain = 0
KJU1 241935Z 19009KT 31/20 A2981 RMK A01 T03100196  RH  051%=      5-min Rain = 0
KJU1 241936Z 20012KT 31/19 A2981 RMK A01 T03130193  RH  049%=      5-min Rain = 0
KJU1 241937Z 20010KT 31/19 A2981 RMK A01 T03130193  RH  049%=      5-min Rain = 0
KJU1 241938Z 19011G17KT 31/20 A2981 RMK A01 T03130195  RH  049%=      5-min Rain = 0
KJU1 241939Z 18012KT 31/19 A2981 RMK A01 T03130192  RH  049%=      5-min Rain = 0
KJU1 241940Z 19011KT 31/19 A2981 RMK A01 T03120192  RH  049%=      5-min Rain = 0
KJU1 241941Z 18009KT 31/19 A2981 RMK A01 T03100191  RH  049%=      5-min Rain = 0
KJU1 241942Z 19012KT 31/20 A298 RMK A01 T03110196  RH  050%=      5-min Rain = 0
KJU1 241943Z 20012G17KT 31/19 A298 RMK A01 T03130193  RH  049%=      5-min Rain = 0
KJU1 241944Z 20010G15KT 31/20 A298 RMK A01 T03110195  RH  050%=      5-min Rain = 0
KJU1 241945Z 18007KT 31/20 A298 RMK A01 T03100195  RH  050%=      5-min Rain = 0
KJU1 241946Z 17006KT 31/20 A298 RMK A01 T03100195  RH  050%=      5-min Rain = 0
KJU1 241947Z 17010KT 31/19 A298 RMK A01 T03100189  RH  048%=      5-min Rain = 0
KJU1 241948Z 18008KT 31/19 A298 RMK A01 T03070189  RH  049%=      5-min Rain = 0
KJU1 241949Z 18010KT 31/19 A298 RMK A01 T03070193  RH  051%=      5-min Rain = 0
KJU1 241950Z 19010KT 31/19 A298 RMK A01 T03090194  RH  050%=      5-min Rain = 0
KJU1 241951Z 18009KT 31/19 A298 RMK A01 T03100194  RH  050%=      5-min Rain = 0
KJU1 241952Z 16012KT 31/19 A298 RMK A01 T03110193  RH  049%=      5-min Rain = 0
KJU1 241953Z 15014KT 31/19 A298 RMK A01 T03100188  RH  048%=      5-min Rain = 0
KJU1 241954Z 18009KT 31/19 A298 RMK A01 T03070190  RH  050%=      5-min Rain = 0
KJU1 241955Z 21010KT 31/19 A298 RMK A01 T03080194  RH  051%=      5-min Rain = 0
KJU1 241956Z 21008KT 31/19 A298 RMK A01 T03100193  RH  050%=      5-min Rain = 0
KJU1 241957Z 19010KT 31/20 A298 RMK A01 T03120195  RH  050%=      5-min Rain = 0
KJU1 241958Z 18008KT 31/19 A298 RMK A01 T03110190  RH  048%=      5-min Rain = 0
KJU1 241959Z 17008KT 31/19 A298 RMK A01 T03080188  RH  049%=      5-min Rain = 0
KJU1 242000Z 19007KT 31/19 A298 RMK A01 T03060188  RH  050%=      5-min Rain = 0
KJU1 242001Z 19007G12KT 31/19 A298 RMK A01 T03060192  RH  051%=      5-min Rain = 0
KJU1 242002Z 19010KT 31/19 A2979 RMK A01 T03100192  RH  049%=      5-min Rain = 0
KJU1 242003Z 20009KT 31/20 A2979 RMK A01 T03120195  RH  050%=      5-min Rain = 0
KJU1 242004Z 20009KT 32/20 A2979 RMK A01 T03170198  RH  050%=      5-min Rain = 0
KJU1 242005Z 21012KT 32/19 A2979 RMK A01 T03190194  RH  048%=      5-min Rain = 0
KJU1 242006Z 20007KT 32/20 A2979 RMK A01 T03160196  RH  049%=      5-min Rain = 0
KJU1 242007Z 21009KT 32/20 A2979 RMK A01 T03170198  RH  049%=      5-min Rain = 0
KJU1 242008Z 20010KT 32/19 A2979 RMK A01 T03180193  RH  048%=      5-min Rain = 0
KJU1 242009Z 21009KT 32/19 A2979 RMK A01 T03160194  RH  048%=      5-min Rain = 0
KJU1 242010Z 18010KT 31/19 A2979 RMK A01 T03140194  RH  049%=      5-min Rain = 0
KJU1 242011Z 18010KT 31/19 A2979 RMK A01 T03140192  RH  048%=      5-min Rain = 0
KJU1 242012Z 18008G13KT 31/19 A2979 RMK A01 T03130193  RH  049%=      5-min Rain = 0
KJU1 242013Z 18010KT 31/19 A2978 RMK A01 T03140193  RH  049%=      5-min Rain = 0
KJU1 242014Z 20012KT 32/19 A2978 RMK A01 T03160193  RH  048%=      5-min Rain = 0
KJU1 242015Z 20009KT 31/19 A2978 RMK A01 T03140194  RH  049%=      5-min Rain = 0
KJU1 242016Z 18010KT 31/20 A2978 RMK A01 T03140195  RH  049%=      5-min Rain = 0
KJU1 242017Z 16006KT 31/19 A2978 RMK A01 T03140191  RH  048%=      5-min Rain = 0
KJU1 242018Z 19007KT 31/20 A2978 RMK A01 T03140195  RH  049%=      5-min Rain = 0
KJU1 242019Z 18007KT 32/20 A2978 RMK A01 T03160199  RH  050%=      5-min Rain = 0
KJU1 242020Z 19007KT 32/20 A2978 RMK A01 T03180197  RH  049%=      5-min Rain = 0
KJU1 242021Z 18008KT 32/19 A2978 RMK A01 T03170191  RH  047%=      5-min Rain = 0
KJU1 242022Z 18009G14KT 31/19 A2978 RMK A01 T03120189  RH  048%=      5-min Rain = 0
KJU1 242023Z 17013KT 31/19 A2978 RMK A01 T03110191  RH  049%=      5-min Rain = 0
KJU1 242024Z 16014KT 31/19 A2978 RMK A01 T03120188  RH  048%=      5-min Rain = 0
KJU1 242025Z 17013KT 31/19 A2978 RMK A01 T03100188  RH  048%=      5-min Rain = 0
KJU1 242026Z 18011KT 31/19 A2978 RMK A01 T03090189  RH  049%=      5-min Rain = 0
KJU1 242027Z 17011KT 31/19 A2978 RMK A01 T03070189  RH  049%=      5-min Rain = 0
KJU1 242028Z 18009KT 31/19 A2978 RMK A01 T03050189  RH  050%=      5-min Rain = 0
KJU1 242029Z 19008KT 30/19 A2978 RMK A01 T03040193  RH  051%=      5-min Rain = 0
KJU1 242030Z 18010KT 31/19 A2978 RMK A01 T03070194  RH  051%=      5-min Rain = 0
KJU1 242031Z 18012KT 31/19 A2978 RMK A01 T03100193  RH  050%=      5-min Rain = 0
KJU1 242032Z 17009KT 31/19 A2978 RMK A01 T03100191  RH  049%=      5-min Rain = 0
KJU1 242033Z 18007KT 31/19 A2978 RMK A01 T03100192  RH  050%=      5-min Rain = 0
KJU1 242034Z 16009KT 31/19 A2978 RMK A01 T03120194  RH  050%=      5-min Rain = 0
KJU1 242035Z 16009KT 31/19 A2978 RMK A01 T03120193  RH  049%=      5-min Rain = 0
KJU1 242036Z 17011KT 31/19 A2978 RMK A01 T03120194  RH  049%=      5-min Rain = 0
KJU1 242037Z 16012KT 31/19 A2978 RMK A01 T03100189  RH  049%=      5-min Rain = 0
KJU1 242038Z 16009G14KT 31/19 A2978 RMK A01 T03070189  RH  050%=      5-min Rain = 0
KJU1 242039Z 16009KT 30/19 A2977 RMK A01 T03040188  RH  050%=      5-min Rain = 0
KJU1 242040Z 16010KT 30/19 A2977 RMK A01 T03030190  RH  051%=      5-min Rain = 0
KJU1 242041Z 17011KT 30/19 A2977 RMK A01 T03040190  RH  050%=      5-min Rain = 0
KJU1 242042Z 17013KT 31/19 A2977 RMK A01 T03050190  RH  050%=      5-min Rain = 0
KJU1 242043Z 18012G17KT 30/19 A2977 RMK A01 T03040188  RH  050%=      5-min Rain = 0
KJU1 242044Z 18012KT 30/19 A2977 RMK A01 T03030190  RH  051%=      5-min Rain = 0
KJU1 242045Z 18011KT 30/19 A2977 RMK A01 T03030192  RH  051%=      5-min Rain = 0
KJU1 242046Z 19011KT 31/19 A2977 RMK A01 T03070193  RH  051%=      5-min Rain = 0
KJU1 242047Z 18011KT 31/19 A2977 RMK A01 T03070192  RH  050%=      5-min Rain = 0
KJU1 242048Z 16009KT 31/19 A2977 RMK A01 T03060192  RH  051%=      5-min Rain = 0
KJU1 242049Z 17008KT 31/19 A2976 RMK A01 T03050192  RH  051%=      5-min Rain = 0
KJU1 242050Z 17012KT 31/19 A2976 RMK A01 T03060193  RH  051%=      5-min Rain = 0
KJU1 242051Z 17013KT 31/19 A2976 RMK A01 T03080191  RH  050%=      5-min Rain = 0
KJU1 242052Z 17010KT 31/19 A2976 RMK A01 T03080189  RH  049%=      5-min Rain = 0
KJU1 242053Z 19011KT 31/19 A2976 RMK A01 T03080190  RH  050%=      5-min Rain = 0
KJU1 242054Z 18011KT 31/19 A2976 RMK A01 T03080191  RH  050%=      5-min Rain = 0
KJU1 242055Z 19011KT 31/19 A2976 RMK A01 T03080192  RH  050%=      5-min Rain = 0
KJU1 242056Z 18015KT 31/19 A2976 RMK A01 T03070189  RH  049%=      5-min Rain = 0
KJU1 242057Z 19016KT 31/19 A2976 RMK A01 T03070187  RH  049%=      5-min Rain = 0
KJU1 242058Z 18014KT 31/19 A2975 RMK A01 T03070188  RH  049%=      5-min Rain = 0
KJU1 242059Z 18013G19KT 31/19 A2975 RMK A01 T03070190  RH  049%=      5-min Rain = 0
KJU1 242100Z 18014G19KT 31/19 A2975 RMK A01 T03080190  RH  049%=      5-min Rain = 0
KJU1 242101Z 20009KT 31/19 A2975 RMK A01 T03090192  RH  050%=      5-min Rain = 0
KJU1 242102Z 20011KT 31/19 A2975 RMK A01 T03090193  RH  050%=      5-min Rain = 0
KJU1 242103Z 20013KT 31/19 A2975 RMK A01 T03090193  RH  050%=      5-min Rain = 0
KJU1 242104Z 19015G20KT 31/19 A2975 RMK A01 T03090194  RH  050%=      5-min Rain = 0
KJU1 242105Z 18014KT 31/19 A2975 RMK A01 T03100192  RH  050%=      5-min Rain = 0
KJU1 242106Z 17012KT 31/19 A2975 RMK A01 T03100192  RH  049%=      5-min Rain = 0
KJU1 242107Z 17012KT 31/19 A2974 RMK A01 T03110192  RH  049%=      5-min Rain = 0
KJU1 242108Z 16014KT 31/19 A2974 RMK A01 T03110190  RH  048%=      5-min Rain = 0
KJU1 242109Z 17011KT 31/19 A2974 RMK A01 T03100188  RH  048%=      5-min Rain = 0
KJU1 242110Z 17009KT 31/19 A2974 RMK A01 T03090190  RH  049%=      5-min Rain = 0
KJU1 242111Z 18010KT 31/19 A2974 RMK A01 T03110190  RH  048%=      5-min Rain = 0
KJU1 242112Z 18012KT 31/19 A2974 RMK A01 T03120191  RH  049%=      5-min Rain = 0
KJU1 242113Z 19009KT 31/19 A2974 RMK A01 T03120194  RH  050%=      5-min Rain = 0
KJU1 242114Z 17011KT 32/19 A2974 RMK A01 T03150194  RH  049%=      5-min Rain = 0
KJU1 242115Z 18011G16KT 32/20 A2974 RMK A01 T03150196  RH  049%=      5-min Rain = 0
KJU1 242116Z 20012G17KT 32/19 A2974 RMK A01 T03160194  RH  048%=      5-min Rain = 0
KJU1 242117Z 19013KT 31/19 A2974 RMK A01 T03130192  RH  049%=      5-min Rain = 0
KJU1 242118Z 20011KT 31/19 A2974 RMK A01 T03100192  RH  049%=      5-min Rain = 0
KJU1 242119Z 18010KT 31/19 A2974 RMK A01 T03090194  RH  050%=      5-min Rain = 0
KJU1 242120Z 17013KT 31/19 A2974 RMK A01 T03090193  RH  050%=      5-min Rain = 0
KJU1 242121Z 17012G17KT 31/19 A2974 RMK A01 T03090193  RH  050%=      5-min Rain = 0
KJU1 242122Z 18011KT 31/19 A2974 RMK A01 T03070194  RH  051%=      5-min Rain = 0
KJU1 242123Z 16012KT 31/19 A2974 RMK A01 T03080194  RH  051%=      5-min Rain = 0
KJU1 242124Z 18012KT 31/19 A2974 RMK A01 T03080192  RH  050%=      5-min Rain = 0
KJU1 242125Z 16012KT 31/19 A2974 RMK A01 T03060192  RH  050%=      5-min Rain = 0
KJU1 242126Z 16011KT 31/19 A2974 RMK A01 T03060192  RH  051%=      5-min Rain = 0
KJU1 242127Z 16013KT 31/19 A2974 RMK A01 T03060192  RH  051%=      5-min Rain = 0
KJU1 242128Z 17013KT 31/19 A2974 RMK A01 T03050192  RH  051%=      5-min Rain = 0
KJU1 242129Z 17012KT 31/19 A2973 RMK A01 T03050191  RH  050%=      5-min Rain = 0
KJU1 242130Z 17009G15KT 31/19 A2973 RMK A01 T03050192  RH  051%=      5-min Rain = 0
KJU1 242131Z 17011KT 31/19 A2973 RMK A01 T03050193  RH  051%=      5-min Rain = 0
KJU1 242132Z 17009KT 31/19 A2973 RMK A01 T03060193  RH  051%=      5-min Rain = 0
KJU1 242133Z 15011KT 31/19 A2973 RMK A01 T03060193  RH  051%=      5-min Rain = 0
KJU1 242134Z 16010G15KT 31/19 A2973 RMK A01 T03060193  RH  051%=      5-min Rain = 0
KJU1 242135Z 16013KT 31/19 A2973 RMK A01 T03070193  RH  050%=      5-min Rain = 0
KJU1 242136Z 16014G19KT 31/19 A2973 RMK A01 T03080192  RH  050%=      5-min Rain = 0
KJU1 242137Z 17012KT 31/19 A2973 RMK A01 T03090192  RH  050%=      5-min Rain = 0
KJU1 242138Z 18012G17KT 31/19 A2973 RMK A01 T03090193  RH  050%=      5-min Rain = 0
KJU1 242139Z 17012KT 31/19 A2973 RMK A01 T03090194  RH  050%=      5-min Rain = 0
KJU1 242140Z 16014KT 31/19 A2973 RMK A01 T03090194  RH  050%=      5-min Rain = 0
KJU1 242141Z 17012KT 31/19 A2973 RMK A01 T03080192  RH  050%=      5-min Rain = 0
KJU1 242142Z 15007G13KT 31/19 A2973 RMK A01 T03070193  RH  051%=      5-min Rain = 0
KJU1 242143Z 17011KT 31/19 A2972 RMK A01 T03090194  RH  050%=      5-min Rain = 0
KJU1 242144Z 16010KT 31/19 A2972 RMK A01 T03100193  RH  050%=      5-min Rain = 0
KJU1 242145Z 18009G14KT 31/19 A2972 RMK A01 T03100194  RH  050%=      5-min Rain = 0
KJU1 242146Z 18008KT 31/19 A2972 RMK A01 T03110194  RH  050%=      5-min Rain = 0
KJU1 242147Z 20010KT 31/20 A2972 RMK A01 T03120196  RH  050%=      5-min Rain = 0
KJU1 242148Z 19008KT 31/19 A2973 RMK A01 T03110193  RH  049%=      5-min Rain = 0
KJU1 242149Z 18008KT 31/19 A2973 RMK A01 T03090193  RH  050%=      5-min Rain = 0
KJU1 242150Z 17007KT 31/19 A2973 RMK A01 T03080193  RH  050%=      5-min Rain = 0
KJU1 242151Z 20007KT 31/20 A2973 RMK A01 T03070195  RH  051%=      5-min Rain = 0
KJU1 242152Z 18009KT 31/19 A2973 RMK A01 T03070193  RH  051%=      5-min Rain = 0
KJU1 242153Z 16006KT 31/19 A2973 RMK A01 T03070192  RH  050%=      5-min Rain = 0
KJU1 242154Z 16009G14KT 31/19 A2973 RMK A01 T03060193  RH  051%=      5-min Rain = 0
KJU1 242155Z 16011KT 31/19 A2973 RMK A01 T03060193  RH  051%=      5-min Rain = 0
KJU1 242156Z 20007KT 31/20 A2973 RMK A01 T03060195  RH  051%=      5-min Rain = 0
KJU1 242157Z 20010KT 31/19 A2973 RMK A01 T03060193  RH  051%=      5-min Rain = 0
KJU1 242158Z 20012KT 31/19 A2973 RMK A01 T03050190  RH  050%=      5-min Rain = 0
KJU1 242159Z 20010KT 30/19 A2973 RMK A01 T03030188  RH  050%=      5-min Rain = 0
KJU1 242200Z 21010KT 30/19 A2974 RMK A01 T03020190  RH  051%=      5-min Rain = 0
KJU1 242201Z 19012KT 30/19 A2973 RMK A01 T03020190  RH  051%=      5-min Rain = 0
KJU1 242202Z 20009KT 30/19 A2973 RMK A01 T03030191  RH  051%=      5-min Rain = 0
KJU1 242203Z 20010KT 30/19 A2973 RMK A01 T03040190  RH  051%=      5-min Rain = 0
KJU1 242204Z 19010KT 30/19 A2973 RMK A01 T03040192  RH  051%=      5-min Rain = 0
KJU1 242205Z 19009KT 30/19 A2973 RMK A01 T03040190  RH  051%=      5-min Rain = 0
KJU1 242206Z 20009G14KT 30/19 A2973 RMK A01 T03040192  RH  051%=      5-min Rain = 0
KJU1 242207Z 21012KT 30/19 A2973 RMK A01 T03030191  RH  051%=      5-min Rain = 0
KJU1 242208Z 19012G17KT 30/19 A2973 RMK A01 T03020192  RH  052%=      5-min Rain = 0
KJU1 242209Z 20012KT 30/19 A2973 RMK A01 T03020191  RH  052%=      5-min Rain = 0
KJU1 242210Z 18010KT 30/19 A2973 RMK A01 T03030193  RH  052%=      5-min Rain = 0
KJU1 242211Z 19010KT 30/19 A2973 RMK A01 T03040192  RH  051%=      5-min Rain = 0
KJU1 242212Z 19009KT 31/19 A2973 RMK A01 T03050193  RH  051%=      5-min Rain = 0
KJU1 242213Z 20013KT 31/19 A2973 RMK A01 T03060193  RH  051%=      5-min Rain = 0
KJU1 242214Z 20011KT 31/19 A2973 RMK A01 T03070192  RH  050%=      5-min Rain = 0
KJU1 242215Z 19011G16KT 31/19 A2973 RMK A01 T03070192  RH  050%=      5-min Rain = 0
KJU1 242216Z 20012KT 31/19 A2973 RMK A01 T03070192  RH  050%=      5-min Rain = 0
KJU1 242217Z 19012KT 31/19 A2973 RMK A01 T03070191  RH  050%=      5-min Rain = 0
KJU1 242218Z 20009KT 31/19 A2973 RMK A01 T03070192  RH  050%=      5-min Rain = 0
KJU1 242219Z 19010KT 31/19 A2973 RMK A01 T03070193  RH  051%=      5-min Rain = 0
KJU1 242220Z 19011KT 31/19 A2973 RMK A01 T03080193  RH  050%=      5-min Rain = 0
KJU1 242221Z 19012KT 31/19 A2973 RMK A01 T03090194  RH  050%=      5-min Rain = 0
KJU1 242222Z 18010KT 31/19 A2973 RMK A01 T03090194  RH  050%=      5-min Rain = 0
KJU1 242223Z 18010KT 31/19 A2973 RMK A01 T03090194  RH  050%=      5-min Rain = 0
KJU1 242224Z 19009KT 31/19 A2973 RMK A01 T03080193  RH  050%=      5-min Rain = 0
KJU1 242225Z 21011G17KT 31/20 A2973 RMK A01 T03060195  RH  051%=      5-min Rain = 0
KJU1 242226Z 20010KT 31/19 A2973 RMK A01 T03050194  RH  052%=      5-min Rain = 0
KJU1 242227Z 20011KT 30/19 A2973 RMK A01 T03020193  RH  052%=      5-min Rain = 0
KJU1 242228Z 19008KT 30/19 A2973 RMK A01 T03010194  RH  053%=      5-min Rain = 0
KJU1 242229Z 20009KT 30/19 A2973 RMK A01 T03000194  RH  053%=      5-min Rain = 0
KJU1 242230Z 20013KT 30/19 A2973 RMK A01 T02990194  RH  053%=      5-min Rain = 0
KJU1 242231Z 19007KT 30/19 A2973 RMK A01 T02980194  RH  054%=      5-min Rain = 0
KJU1 242232Z 18011KT 30/20 A2973 RMK A01 T02980196  RH  054%=      5-min Rain = 0
KJU1 242233Z 16011KT 30/19 A2972 RMK A01 T02970194  RH  054%=      5-min Rain = 0
KJU1 242234Z 17010KT 30/19 A2972 RMK A01 T02970194  RH  054%=      5-min Rain = 0
KJU1 242235Z 15010KT 30/19 A2972 RMK A01 T02980194  RH  054%=      5-min Rain = 0
KJU1 242236Z 15011KT 30/19 A2972 RMK A01 T02980193  RH  053%=      5-min Rain = 0
KJU1 242237Z 17011KT 30/19 A2972 RMK A01 T02980194  RH  054%=      5-min Rain = 0
KJU1 242238Z 17012KT 30/19 A2972 RMK A01 T02980193  RH  053%=      5-min Rain = 0
KJU1 242239Z 18010KT 30/19 A2972 RMK A01 T02980194  RH  054%=      5-min Rain = 0
KJU1 242240Z 18009KT 30/19 A2972 RMK A01 T02980194  RH  054%=      5-min Rain = 0
KJU1 242241Z 18008KT 30/19 A2972 RMK A01 T02980194  RH  054%=      5-min Rain = 0
KJU1 242242Z 19009KT 30/20 A2972 RMK A01 T02990196  RH  054%=      5-min Rain = 0
KJU1 242243Z 19009KT 30/19 A2972 RMK A01 T02990193  RH  053%=      5-min Rain = 0
KJU1 242244Z 20008KT 30/19 A2972 RMK A01 T02980193  RH  053%=      5-min Rain = 0
KJU1 242245Z 20010G15KT 30/19 A2972 RMK A01 T02980193  RH  053%=      5-min Rain = 0
KJU1 242246Z 19013KT 30/19 A2972 RMK A01 T02970190  RH  053%=      5-min Rain = 0
KJU1 242247Z 20011KT 30/19 A2972 RMK A01 T02970188  RH  052%=      5-min Rain = 0
KJU1 242248Z 20010KT 30/19 A2972 RMK A01 T02970188  RH  052%=      5-min Rain = 0
KJU1 242249Z 19010KT 30/19 A2972 RMK A01 T02970189  RH  052%=      5-min Rain = 0
KJU1 242250Z 18010KT 30/19 A2972 RMK A01 T02970189  RH  052%=      5-min Rain = 0
KJU1 242251Z 18013KT 30/19 A2972 RMK A01 T02970188  RH  052%=      5-min Rain = 0
KJU1 242252Z 21012KT 30/19 A2972 RMK A01 T02970188  RH  052%=      5-min Rain = 0
KJU1 242253Z 20008KT 30/19 A2972 RMK A01 T02970189  RH  052%=      5-min Rain = 0
KJU1 242254Z 20010KT 30/19 A2972 RMK A01 T02960189  RH  053%=      5-min Rain = 0
KJU1 242255Z 19011KT 30/19 A2972 RMK A01 T02960189  RH  052%=      5-min Rain = 0
KJU1 242256Z 19010KT 30/19 A2972 RMK A01 T02960187  RH  052%=      5-min Rain = 0
KJU1 242257Z 19010G16KT 30/19 A2972 RMK A01 T02960189  RH  052%=      5-min Rain = 0
KJU1 242258Z 19010G15KT 30/19 A2972 RMK A01 T02960188  RH  052%=      5-min Rain = 0
KJU1 242259Z 19010KT 30/19 A2972 RMK A01 T02960189  RH  052%=      5-min Rain = 0
KJU1 242300Z 19012KT 30/19 A2972 RMK A01 T02960189  RH  053%=      5-min Rain = 0
KJU1 242301Z 19010KT 30/19 A2972 RMK A01 T02960189  RH  052%=      5-min Rain = 0
KJU1 242302Z 17009KT 30/19 A2971 RMK A01 T02960188  RH  052%=      5-min Rain = 0
KJU1 242303Z 18011KT 30/19 A2971 RMK A01 T02960189  RH  053%=      5-min Rain = 0
KJU1 242304Z 18008KT 30/19 A2971 RMK A01 T02960190  RH  053%=      5-min Rain = 0
KJU1 242305Z 18007KT 30/19 A2971 RMK A01 T02960191  RH  053%=      5-min Rain = 0
KJU1 242306Z 18010KT 30/19 A2971 RMK A01 T02960191  RH  053%=      5-min Rain = 0
KJU1 242307Z 17009KT 30/19 A2971 RMK A01 T02960192  RH  053%=      5-min Rain = 0
KJU1 242308Z 18007KT 30/19 A2971 RMK A01 T02960193  RH  054%=      5-min Rain = 0
KJU1 242309Z 17008KT 30/19 A2971 RMK A01 T02960193  RH  054%=      5-min Rain = 0
KJU1 242310Z 17010KT 30/19 A2971 RMK A01 T02960193  RH  054%=      5-min Rain = 0
KJU1 242311Z 16009KT 30/19 A2971 RMK A01 T02960194  RH  054%=      5-min Rain = 0
KJU1 242312Z 17007KT 30/20 A2971 RMK A01 T02960195  RH  055%=      5-min Rain = 0
KJU1 242313Z 17006KT 30/20 A2971 RMK A01 T02960196  RH  055%=      5-min Rain = 0
KJU1 242314Z 17006KT 30/20 A2971 RMK A01 T02960197  RH  055%=      5-min Rain = 0
KJU1 242315Z 17009KT 30/20 A2971 RMK A01 T02960197  RH  055%=      5-min Rain = 0
KJU1 242316Z 15008KT 30/20 A2971 RMK A01 T02960195  RH  055%=      5-min Rain = 0
KJU1 242317Z 17006KT 30/20 A2971 RMK A01 T02960197  RH  055%=      5-min Rain = 0
KJU1 242318Z 18008G13KT 30/20 A2971 RMK A01 T02960197  RH  055%=      5-min Rain = 0
KJU1 242319Z 16010KT 30/20 A297 RMK A01 T02960196  RH  055%=      5-min Rain = 0
KJU1 242320Z 16010KT 30/19 A297 RMK A01 T02950194  RH  055%=      5-min Rain = 0
KJU1 242321Z 17010KT 30/19 A297 RMK A01 T02950194  RH  054%=      5-min Rain = 0
KJU1 242322Z 17008KT 30/20 A297 RMK A01 T02950195  RH  055%=      5-min Rain = 0
KJU1 242323Z 17010KT 30/20 A297 RMK A01 T02960195  RH  055%=      5-min Rain = 0
KJU1 242324Z 16010KT 30/20 A297 RMK A01 T02950195  RH  055%=      5-min Rain = 0
KJU1 242325Z 16009KT 30/19 A2969 RMK A01 T02950193  RH  054%=      5-min Rain = 0
KJU1 242326Z 18008KT 30/19 A2969 RMK A01 T02950193  RH  054%=      5-min Rain = 0
KJU1 242327Z 16010KT 30/19 A2969 RMK A01 T02950193  RH  054%=      5-min Rain = 0
KJU1 242328Z 15009KT 29/19 A2969 RMK A01 T02940192  RH  054%=      5-min Rain = 0
KJU1 242329Z 16008KT 30/19 A2969 RMK A01 T02950193  RH  054%=      5-min Rain = 0
KJU1 242330Z 15008KT 29/19 A2969 RMK A01 T02940193  RH  054%=      5-min Rain = 0
KJU1 242331Z 17007KT 29/19 A2969 RMK A01 T02940194  RH  055%=      5-min Rain = 0
KJU1 242332Z 17007KT 29/20 A2969 RMK A01 T02940195  RH  055%=      5-min Rain = 0
KJU1 242333Z 17010KT 29/19 A2969 RMK A01 T02940194  RH  055%=      5-min Rain = 0
KJU1 242334Z 16010KT 29/19 A2969 RMK A01 T02940193  RH  054%=      5-min Rain = 0
KJU1 242335Z 16010KT 29/19 A2969 RMK A01 T02940192  RH  054%=      5-min Rain = 0
KJU1 242336Z 16010KT 29/19 A2969 RMK A01 T02940193  RH  054%=      5-min Rain = 0
KJU1 242337Z 16011KT 29/19 A2968 RMK A01 T02940191  RH  054%=      5-min Rain = 0
KJU1 242338Z 17009G14KT 29/19 A2969 RMK A01 T02940191  RH  054%=      5-min Rain = 0
KJU1 242339Z 16012KT 29/19 A2968 RMK A01 T02930190  RH  054%=      5-min Rain = 0
KJU1 242340Z 16012KT 29/19 A2968 RMK A01 T02930190  RH  054%=      5-min Rain = 0
KJU1 242341Z 16008KT 29/19 A2968 RMK A01 T02930190  RH  054%=      5-min Rain = 0
KJU1 242342Z 17008KT 29/19 A2968 RMK A01 T02930191  RH  054%=      5-min Rain = 0
KJU1 242343Z 17009KT 29/19 A2968 RMK A01 T02920190  RH  054%=      5-min Rain = 0
KJU1 242344Z 17009KT 29/19 A2968 RMK A01 T02920189  RH  054%=      5-min Rain = 0
KJU1 242345Z 17011KT 29/19 A2968 RMK A01 T02920189  RH  054%=      5-min Rain = 0
KJU1 242346Z 17009KT 29/19 A2968 RMK A01 T02920189  RH  054%=      5-min Rain = 0
KJU1 242347Z 17008KT 29/19 A2968 RMK A01 T02920190  RH  054%=      5-min Rain = 0
KJU1 242348Z 16006KT 29/19 A2968 RMK A01 T02910190  RH  054%=      5-min Rain = 0
KJU1 242349Z 16006KT 29/19 A2968 RMK A01 T02910191  RH  055%=      5-min Rain = 0
KJU1 242350Z 16006KT 29/19 A2968 RMK A01 T02910191  RH  055%=      5-min Rain = 0
KJU1 242351Z 15007G12KT 29/19 A2968 RMK A01 T02910190  RH  055%=      5-min Rain = 0
KJU1 242352Z 17011KT 29/19 A2968 RMK A01 T02900189  RH  054%=      5-min Rain = 0
KJU1 242353Z 16010G15KT 29/19 A2968 RMK A01 T02900189  RH  055%=      5-min Rain = 0
KJU1 242354Z 17009KT 29/19 A2968 RMK A01 T02900190  RH  055%=      5-min Rain = 0
KJU1 242355Z 17010KT 29/19 A2968 RMK A01 T02890190  RH  055%=      5-min Rain = 0
KJU1 242356Z 16006KT 29/19 A2968 RMK A01 T02890190  RH  055%=      5-min Rain = 0
KJU1 242357Z 18007KT 29/19 A2968 RMK A01 T02890191  RH  055%=      5-min Rain = 0
KJU1 242358Z 17008KT 29/19 A2968 RMK A01 T02890190  RH  055%=      5-min Rain = 0
KJU1 242359Z 18008KT 29/19 A2968 RMK A01 T02890190  RH  055%=      5-min Rain = 0
KJU1 250000Z 19010KT 29/19 A2969 RMK A01 T02890191  RH  055%=      5-min Rain = 0
KJU1 250001Z 18010KT 29/19 A2969 RMK A01 T02880190  RH  055%=      5-min Rain = 0
KJU1 250002Z 18007KT 29/19 A2969 RMK A01 T02880190  RH  055%=      5-min Rain = 0
KJU1 250003Z 18008KT 29/19 A2969 RMK A01 T02880191  RH  056%=      5-min Rain = 0
KJU1 250004Z 20008KT 29/19 A2969 RMK A01 T02870191  RH  056%=      5-min Rain = 0
KJU1 250005Z 19008KT 29/19 A2969 RMK A01 T02870191  RH  056%=      5-min Rain = 0
KJU1 250006Z 21005KT 29/19 A2969 RMK A01 T02870191  RH  056%=      5-min Rain = 0
KJU1 250007Z 18006KT 29/19 A2969 RMK A01 T02860192  RH  057%=      5-min Rain = 0
KJU1 250008Z 19005KT 29/19 A2969 RMK A01 T02860191  RH  057%=      5-min Rain = 0
KJU1 250009Z 19004KT 29/19 A2969 RMK A01 T02850191  RH  057%=      5-min Rain = 0
KJU1 250010Z 17006KT 29/19 A2969 RMK A01 T02850193  RH  057%=      5-min Rain = 0
KJU1 250011Z 17006KT 28/19 A2969 RMK A01 T02840192  RH  057%=      5-min Rain = 0
KJU1 250012Z 18008KT 28/19 A2969 RMK A01 T02840192  RH  057%=      5-min Rain = 0
KJU1 250013Z 18006KT 28/19 A297 RMK A01 T02840192  RH  057%=      5-min Rain = 0
KJU1 250014Z 17005KT 28/19 A297 RMK A01 T02840192  RH  058%=      5-min Rain = 0
KJU1 250015Z 17004KT 28/19 A297 RMK A01 T02840193  RH  058%=      5-min Rain = 0
KJU1 250016Z 18005KT 28/19 A297 RMK A01 T02830194  RH  058%=      5-min Rain = 0
KJU1 250017Z 18007KT 28/19 A297 RMK A01 T02830193  RH  058%=      5-min Rain = 0
KJU1 250018Z 18006KT 28/19 A297 RMK A01 T02830193  RH  058%=      5-min Rain = 0
KJU1 250019Z 18007KT 28/19 A297 RMK A01 T02830194  RH  058%=      5-min Rain = 0
KJU1 250020Z 18006KT 28/19 A297 RMK A01 T02820194  RH  059%=      5-min Rain = 0
KJU1 250021Z 17007KT 28/19 A297 RMK A01 T02820194  RH  059%=      5-min Rain = 0
KJU1 250022Z 16006KT 28/19 A297 RMK A01 T02810194  RH  059%=      5-min Rain = 0
KJU1 250023Z 16005KT 28/19 A297 RMK A01 T02820194  RH  059%=      5-min Rain = 0
KJU1 250024Z 16007KT 28/19 A297 RMK A01 T02810194  RH  059%=      5-min Rain = 0
KJU1 250025Z 15006KT 28/19 A297 RMK A01 T02810194  RH  059%=      5-min Rain = 0
KJU1 250026Z 15004KT 28/19 A297 RMK A01 T02820194  RH  059%=      5-min Rain = 0
KJU1 250027Z 16007KT 28/20 A297 RMK A01 T02820195  RH  059%=      5-min Rain = 0
KJU1 250028Z 16008KT 28/19 A297 RMK A01 T02820194  RH  059%=      5-min Rain = 0
KJU1 250029Z 15006KT 28/19 A297 RMK A01 T02810194  RH  059%=      5-min Rain = 0
KJU1 250030Z 16006G11KT 28/20 A297 RMK A01 T02820195  RH  059%=      5-min Rain = 0
KJU1 250031Z 17008KT 28/20 A297 RMK A01 T02820195  RH  059%=      5-min Rain = 0
KJU1 250032Z 16008KT 28/20 A297 RMK A01 T02820196  RH  060%=      5-min Rain = 0
KJU1 250033Z 19006KT 28/20 A297 RMK A01 T02810195  RH  060%=      5-min Rain = 0
KJU1 250034Z 17004KT 28/20 A297 RMK A01 T02810196  RH  060%=      5-min Rain = 0
KJU1 250035Z 18003KT 28/20 A297 RMK A01 T02810196  RH  060%=      5-min Rain = 0
KJU1 250036Z 20004KT 28/20 A297 RMK A01 T02810196  RH  060%=      5-min Rain = 0
KJU1 250037Z 18006KT 28/20 A2969 RMK A01 T02800195  RH  060%=      5-min Rain = 0
KJU1 250038Z 19008KT 28/20 A297 RMK A01 T02800195  RH  060%=      5-min Rain = 0
KJU1 250039Z 20006KT 28/20 A297 RMK A01 T02800195  RH  060%=      5-min Rain = 0
KJU1 250040Z 19006KT 28/20 A297 RMK A01 T02800195  RH  060%=      5-min Rain = 0
KJU1 250041Z 20009KT 28/20 A2971 RMK A01 T02800196  RH  060%=      5-min Rain = 0
KJU1 250042Z 20012KT 28/20 A2971 RMK A01 T02790196  RH  060%=      5-min Rain = 0
KJU1 250043Z 20010KT 28/20 A2971 RMK A01 T02790196  RH  060%=      5-min Rain = 0
KJU1 250044Z 20009KT 28/20 A2972 RMK A01 T02790196  RH  061%=      5-min Rain = 0
KJU1 250045Z 21009G14KT 28/20 A2972 RMK A01 T02790197  RH  061%=      5-min Rain = 0
KJU1 250046Z 21009KT 28/20 A2973 RMK A01 T02780198  RH  062%=      5-min Rain = 0
KJU1 250047Z 22015G21KT 28/19 A2973 RMK A01 T02750192  RH  060%=      5-min Rain = 0
KJU1 250048Z 29015G26KT 26/18 A2974 RMK A01 T02630175  RH  058%=      5-min Rain = 0
KJU1 250049Z 29017G25KT 25/16 A2974 RMK A01 T02510155  RH  055%=      5-min Rain = 0
KJU1 250050Z 31016G22KT 24/15 A2973 RMK A01 T02400147  RH  056%=      5-min Rain = 0
KJU1 250051Z 31017G34KT 23/14 A2973 RMK A01 T02320144  RH  057%=      5-min Rain = 0
KJU1 250052Z 31023KT 23/14 A2974 RMK A01 T02260139  RH  058%=      5-min Rain = 0
KJU1 250053Z 32013G24KT 22/14 A2975 RMK A01 T02210138  RH  060%=      5-min Rain = 0
KJU1 250054Z 32011G18KT 22/14 A2975 RMK A01 T02160141  RH  062%=      5-min Rain = 0
KJU1 250055Z 31012G18KT 21/14 A2976 RMK A01 T02130142  RH  064%=      5-min Rain = 0.01
KJU1 250056Z 29018G24KT 21/14 A2977 RMK A01 T02090143  RH  066%=      5-min Rain = 0
KJU1 250057Z 29015G24KT 20/14 A2978 RMK A01 T02030142  RH  068%=      5-min Rain = 0
KJU1 250058Z 27011G19KT 20/14 A2978 RMK A01 T01980144  RH  071%=      5-min Rain = 0
KJU1 250059Z 27012G19KT 19/15 A2979 RMK A01 T01940147  RH  074%=      5-min Rain = 0.02
KJU1 250100Z 28015G21KT 19/15 A298 RMK A01 T01900147  RH  076%=      5-min Rain = 0.01
KJU1 250101Z 29011G16KT 19/15 A298 RMK A01 T01860148  RH  078%=      5-min Rain = 0.04
KJU1 250102Z 29008G14KT 18/15 A2981 RMK A01 T01830149  RH  081%=      5-min Rain = 0.03
KJU1 250103Z 27008KT 18/15 A2981 RMK A01 T01800150  RH  083%=      5-min Rain = 0.02
KJU1 250104Z 27006KT 18/15 A2982 RMK A01 T01770151  RH  084%=      5-min Rain = 0.01
KJU1 250105Z 24003KT 18/15 A2983 RMK A01 T01750152  RH  086%=      5-min Rain = 0.01
KJU1 250106Z 23003KT 17/15 A2983 RMK A01 T01740154  RH  088%=      5-min Rain = 0.02
KJU1 250107Z 25013G19KT 17/15 A2983 RMK A01 T01730153  RH  088%=      5-min Rain = 0.01
KJU1 250108Z 26008G15KT 17/15 A2983 RMK A01 T01710151  RH  088%=      5-min Rain = 0.02
KJU1 250109Z 28008KT 17/15 A2982 RMK A01 T01700151  RH  088%=      5-min Rain = 0.01
KJU1 250110Z 29007G13KT 17/15 A2982 RMK A01 T01690149  RH  088%=      5-min Rain = 0.02
KJU1 250111Z 31004KT 17/15 A2982 RMK A01 T01680148  RH  088%=      5-min Rain = 0.03
KJU1 250112Z 28003KT 17/15 A2982 RMK A01 T01680148  RH  088%=      5-min Rain = 0.02
KJU1 250113Z 26009KT 17/15 A2982 RMK A01 T01670148  RH  088%=      5-min Rain = 0.01
KJU1 250114Z 25006KT 17/15 A2982 RMK A01 T01670146  RH  087%=      5-min Rain = 0.03
KJU1 250115Z 27003KT 17/15 A2982 RMK A01 T01670146  RH  087%=      5-min Rain = 0.01
KJU1 250116Z 26003KT 17/15 A2982 RMK A01 T01670147  RH  088%=      5-min Rain = 0.01
KJU1 250117Z 25004KT 17/15 A2981 RMK A01 T01660147  RH  088%=      5-min Rain = 0.01
KJU1 250118Z 28002KT 17/15 A2981 RMK A01 T01660146  RH  088%=      5-min Rain = 0.01
KJU1 250119Z 29002KT 17/15 A2981 RMK A01 T01660147  RH  088%=      5-min Rain = 0.01
KJU1 250120Z 30003KT 17/15 A2981 RMK A01 T01660147  RH  089%=      5-min Rain = 0.01
KJU1 250121Z 31004KT 17/15 A298 RMK A01 T01660148  RH  089%=      5-min Rain = 0.01
KJU1 250122Z 30003KT 17/15 A298 RMK A01 T01660148  RH  089%=      5-min Rain = 0.02
KJU1 250123Z 34003KT 17/15 A298 RMK A01 T01660148  RH  089%=      5-min Rain = 0.02
KJU1 250124Z 36004KT 17/15 A2979 RMK A01 T01660149  RH  090%=      5-min Rain = 0.01
KJU1 250125Z 03004KT 17/15 A2979 RMK A01 T01660150  RH  090%=      5-min Rain = 0.01
KJU1 250126Z 03004KT 17/15 A2979 RMK A01 T01660150  RH  091%=      5-min Rain = 0.01
KJU1 250127Z 03004KT 17/15 A2979 RMK A01 T01650151  RH  091%=      5-min Rain = 0
KJU1 250128Z 04003KT 17/15 A2979 RMK A01 T01650150  RH  091%=      5-min Rain = 0.01
KJU1 250129Z 06002KT 16/15 A298 RMK A01 T01640150  RH  091%=      5-min Rain = 0
KJU1 250130Z 07002KT 17/15 A298 RMK A01 T01650151  RH  091%=      5-min Rain = 0
KJU1 250131Z 10002KT 17/15 A298 RMK A01 T01650151  RH  092%=      5-min Rain = 0
KJU1 250132Z 12002KT 17/15 A298 RMK A01 T01650152  RH  092%=      5-min Rain = 0.01
KJU1 250133Z 14003KT 17/15 A298 RMK A01 T01650153  RH  092%=      5-min Rain = 0
KJU1 250134Z 13003KT 17/15 A298 RMK A01 T01650154  RH  093%=      5-min Rain = 0
KJU1 250135Z 12003KT 17/16 A298 RMK A01 T01660155  RH  093%=      5-min Rain = 0
KJU1 250136Z 11003KT 17/16 A298 RMK A01 T01650155  RH  093%=      5-min Rain = 0
KJU1 250137Z 11003KT 17/16 A2979 RMK A01 T01650155  RH  093%=      5-min Rain = 0.01
KJU1 250138Z 12003KT 17/15 A2979 RMK A01 T01650154  RH  093%=      5-min Rain = 0
KJU1 250139Z 12003KT 17/15 A2979 RMK A01 T01650154  RH  093%=      5-min Rain = 0
KJU1 250140Z 12004KT 17/16 A2979 RMK A01 T01660155  RH  093%=      5-min Rain = 0
KJU1 250141Z 13005KT 17/16 A2979 RMK A01 T01660156  RH  094%=      5-min Rain = 0
KJU1 250142Z 13006KT 17/16 A2979 RMK A01 T01670157  RH  094%=      5-min Rain = 0
KJU1 250143Z 13006KT 17/16 A2979 RMK A01 T01670157  RH  094%=      5-min Rain = 0
KJU1 250144Z 14005KT 17/16 A2979 RMK A01 T01670157  RH  094%=      5-min Rain = 0
KJU1 250145Z 13005KT 17/16 A2979 RMK A01 T01670157  RH  094%=      5-min Rain = 0
KJU1 250146Z 14004KT 17/16 A2979 RMK A01 T01670157  RH  094%=      5-min Rain = 0
KJU1 250147Z 14004KT 17/16 A2979 RMK A01 T01680158  RH  094%=      5-min Rain = 0
KJU1 250148Z 14003KT 17/16 A2979 RMK A01 T01670157  RH  094%=      5-min Rain = 0
KJU1 250149Z 14002KT 17/16 A2978 RMK A01 T01680157  RH  094%=      5-min Rain = 0
KJU1 250150Z 14001KT 17/16 A2978 RMK A01 T01680157  RH  093%=      5-min Rain = 0
KJU1 250151Z 27000KT 17/16 A2977 RMK A01 T01680158  RH  094%=      5-min Rain = 0
KJU1 250152Z 28001KT 17/16 A2977 RMK A01 T01690160  RH  094%=      5-min Rain = 0
KJU1 250153Z 31001KT 17/16 A2976 RMK A01 T01690160  RH  094%=      5-min Rain = 0
KJU1 250154Z 28002KT 17/16 A2976 RMK A01 T01690160  RH  095%=      5-min Rain = 0
KJU1 250155Z 29002KT 17/16 A2976 RMK A01 T01690161  RH  095%=      5-min Rain = 0
KJU1 250156Z 28002KT 17/16 A2976 RMK A01 T01690161  RH  095%=      5-min Rain = 0
KJU1 250157Z 26002KT 17/16 A2975 RMK A01 T01680161  RH  095%=      5-min Rain = 0
KJU1 250158Z 24003KT 17/16 A2975 RMK A01 T01680161  RH  096%=      5-min Rain = 0
KJU1 250159Z 23003KT 17/16 A2975 RMK A01 T01680162  RH  096%=      5-min Rain = 0
KJU1 250200Z 24003KT 17/16 A2975 RMK A01 T01680162  RH  096%=      5-min Rain = 0
KJU1 250201Z 23003KT 17/16 A2975 RMK A01 T01680162  RH  096%=      5-min Rain = 0
KJU1 250202Z 22003KT 17/16 A2974 RMK A01 T01670161  RH  096%=      5-min Rain = 0
KJU1 250203Z 23003KT 17/16 A2974 RMK A01 T01660161  RH  097%=      5-min Rain = 0
KJU1 250204Z 22002KT 17/16 A2974 RMK A01 T01670162  RH  097%=      5-min Rain = 0
KJU1 250205Z 19002KT 17/16 A2973 RMK A01 T01670163  RH  097%=      5-min Rain = 0
KJU1 250206Z 18003KT 17/16 A2973 RMK A01 T01670163  RH  097%=      5-min Rain = 0
KJU1 250207Z 17002KT 17/16 A2972 RMK A01 T01670163  RH  097%=      5-min Rain = 0
KJU1 250208Z 16003KT 17/16 A2971 RMK A01 T01680164  RH  097%=      5-min Rain = 0
KJU1 250209Z 15003KT 17/16 A2971 RMK A01 T01680164  RH  098%=      5-min Rain = 0
KJU1 250210Z 14003KT 17/17 A2971 RMK A01 T01680165  RH  098%=      5-min Rain = 0
KJU1 250211Z 15003KT 17/17 A297 RMK A01 T01680165  RH  098%=      5-min Rain = 0
KJU1 250212Z 15003KT 17/17 A297 RMK A01 T01680165  RH  098%=      5-min Rain = 0
KJU1 250213Z 16002KT 17/17 A297 RMK A01 T01680165  RH  098%=      5-min Rain = 0
KJU1 250214Z 16001KT 17/17 A297 RMK A01 T01680165  RH  098%=      5-min Rain = 0
KJU1 250215Z 17001KT 17/17 A2969 RMK A01 T01680166  RH  098%=      5-min Rain = 0
KJU1 250216Z 16002KT 17/17 A2969 RMK A01 T01690166  RH  098%=      5-min Rain = 0
KJU1 250217Z 17002KT 17/17 A2969 RMK A01 T01690166  RH  098%=      5-min Rain = 0
KJU1 250218Z 16004KT 17/17 A2969 RMK A01 T01690166  RH  098%=      5-min Rain = 0
KJU1 250219Z 14004KT 17/17 A2969 RMK A01 T01690167  RH  099%=      5-min Rain = 0
KJU1 250220Z 14007G12KT 17/17 A2969 RMK A01 T01690166  RH  098%=      5-min Rain = 0
KJU1 250221Z 14009KT 17/16 A2969 RMK A01 T01680164  RH  098%=      5-min Rain = 0
KJU1 250222Z 14008KT 17/16 A2969 RMK A01 T01670162  RH  097%=      5-min Rain = 0
KJU1 250223Z 14009KT 17/16 A2969 RMK A01 T01670160  RH  096%=      5-min Rain = 0
KJU1 250224Z 14009KT 17/16 A2969 RMK A01 T01670157  RH  094%=      5-min Rain = 0
KJU1 250225Z 14009KT 17/15 A2968 RMK A01 T01680154  RH  092%=      5-min Rain = 0
KJU1 250226Z 14009KT 17/15 A2968 RMK A01 T01710153  RH  089%=      5-min Rain = 0
KJU1 250227Z 14009KT 17/15 A2968 RMK A01 T01720152  RH  088%=      5-min Rain = 0
KJU1 250228Z 14008KT 17/15 A2968 RMK A01 T01730152  RH  087%=      5-min Rain = 0
KJU1 250229Z 14006KT 17/15 A2967 RMK A01 T01740152  RH  087%=      5-min Rain = 0
KJU1 250230Z 13006KT 18/15 A2967 RMK A01 T01750152  RH  087%=      5-min Rain = 0
KJU1 250231Z 14003KT 18/15 A2967 RMK A01 T01750153  RH  087%=      5-min Rain = 0
KJU1 250232Z 13003KT 18/15 A2967 RMK A01 T01750153  RH  087%=      5-min Rain = 0
KJU1 250233Z 12004KT 18/16 A2967 RMK A01 T01750155  RH  088%=      5-min Rain = 0
KJU1 250234Z 12003KT 18/16 A2966 RMK A01 T01750156  RH  089%=      5-min Rain = 0
KJU1 250235Z 10005KT 18/16 A2966 RMK A01 T01750157  RH  090%=      5-min Rain = 0
KJU1 250236Z 11009KT 17/16 A2965 RMK A01 T01740158  RH  090%=      5-min Rain = 0
KJU1 250237Z 11011KT 17/16 A2964 RMK A01 T01730158  RH  091%=      5-min Rain = 0
KJU1 250238Z 11013KT 17/16 A2964 RMK A01 T01730158  RH  091%=      5-min Rain = 0
KJU1 250239Z 11015KT 17/16 A2963 RMK A01 T01730157  RH  090%=      5-min Rain = 0
KJU1 250240Z 11013KT 17/16 A2963 RMK A01 T01730157  RH  090%=      5-min Rain = 0
KJU1 250241Z 11014KT 17/16 A2962 RMK A01 T01730158  RH  091%=      5-min Rain = 0
KJU1 250242Z 12015KT 17/16 A2962 RMK A01 T01720159  RH  092%=      5-min Rain = 0
KJU1 250243Z 12015KT 17/16 A2962 RMK A01 T01720160  RH  092%=      5-min Rain = 0
KJU1 250244Z 12014KT 17/16 A2962 RMK A01 T01720160  RH  093%=      5-min Rain = 0
KJU1 250245Z 12016KT 17/16 A2961 RMK A01 T01710159  RH  093%=      5-min Rain = 0
KJU1 250246Z 12015KT 17/16 A2961 RMK A01 T01720159  RH  092%=      5-min Rain = 0
KJU1 250247Z 12015KT 17/16 A2961 RMK A01 T01710159  RH  092%=      5-min Rain = 0
KJU1 250248Z 12017KT 17/16 A2961 RMK A01 T01720159  RH  092%=      5-min Rain = 0
KJU1 250249Z 12014KT 17/16 A2961 RMK A01 T01720159  RH  092%=      5-min Rain = 0
KJU1 250250Z 12012G17KT 17/16 A2961 RMK A01 T01710158  RH  092%=      5-min Rain = 0
KJU1 250251Z 11015KT 17/16 A2961 RMK A01 T01710158  RH  092%=      5-min Rain = 0
KJU1 250252Z 12017G22KT 17/16 A2961 RMK A01 T01720157  RH  091%=      5-min Rain = 0
KJU1 250253Z 12015KT 17/16 A2962 RMK A01 T01720155  RH  090%=      5-min Rain = 0
KJU1 250254Z 12014KT 17/16 A2962 RMK A01 T01730156  RH  089%=      5-min Rain = 0
KJU1 250255Z 12014KT 17/16 A2962 RMK A01 T01730156  RH  090%=      5-min Rain = 0
KJU1 250256Z 12013KT 17/16 A2963 RMK A01 T01730156  RH  090%=      5-min Rain = 0
KJU1 250257Z 12012KT 17/16 A2963 RMK A01 T01730157  RH  090%=      5-min Rain = 0
KJU1 250258Z 13012KT 17/16 A2963 RMK A01 T01730157  RH  090%=      5-min Rain = 0
KJU1 250259Z 13010G15KT 17/16 A2963 RMK A01 T01730157  RH  090%=      5-min Rain = 0
KJU1 250300Z 13010KT 17/16 A2963 RMK A01 T01730157  RH  090%=      5-min Rain = 0
KJU1 250301Z 13011KT 17/16 A2964 RMK A01 T01730156  RH  090%=      5-min Rain = 0
KJU1 250302Z 13009KT 17/16 A2964 RMK A01 T01740155  RH  089%=      5-min Rain = 0
KJU1 250303Z 14007G12KT 17/15 A2965 RMK A01 T01740154  RH  088%=      5-min Rain = 0
KJU1 250304Z 14006G11KT 18/15 A2966 RMK A01 T01750153  RH  087%=      5-min Rain = 0
KJU1 250305Z 23001KT 18/15 A2967 RMK A01 T01760153  RH  086%=      5-min Rain = 0
KJU1 250306Z 04004KT 18/15 A2967 RMK A01 T01770153  RH  086%=      5-min Rain = 0
KJU1 250307Z 35004KT 18/15 A2968 RMK A01 T01770153  RH  086%=      5-min Rain = 0
KJU1 250308Z 34006KT 18/16 A2968 RMK A01 T01770155  RH  087%=      5-min Rain = 0
KJU1 250309Z 34007KT 18/16 A2969 RMK A01 T01760157  RH  089%=      5-min Rain = 0
KJU1 250310Z 35009KT 18/16 A297 RMK A01 T01760158  RH  089%=      5-min Rain = 0
KJU1 250311Z 34008KT 18/16 A297 RMK A01 T01750157  RH  089%=      5-min Rain = 0
KJU1 250312Z 34009KT 18/16 A2971 RMK A01 T01750157  RH  090%=      5-min Rain = 0
KJU1 250313Z 34005KT 18/16 A2971 RMK A01 T01750156  RH  089%=      5-min Rain = 0
KJU1 250314Z 33002KT 18/16 A2971 RMK A01 T01750155  RH  088%=      5-min Rain = 0
KJU1 250315Z 20001KT 18/16 A2971 RMK A01 T01760156  RH  088%=      5-min Rain = 0
KJU1 250316Z 19002KT 18/16 A2972 RMK A01 T01750156  RH  088%=      5-min Rain = 0
KJU1 250317Z 18002KT 18/16 A2972 RMK A01 T01760156  RH  088%=      5-min Rain = 0
KJU1 250318Z 17001KT 18/16 A2972 RMK A01 T01760155  RH  088%=      5-min Rain = 0
KJU1 250319Z 10002KT 18/16 A2972 RMK A01 T01760155  RH  087%=      5-min Rain = 0
KJU1 250320Z 08003KT 18/16 A2972 RMK A01 T01760158  RH  089%=      5-min Rain = 0
KJU1 250321Z 04004KT 18/16 A2972 RMK A01 T01770160  RH  090%=      5-min Rain = 0
KJU1 250322Z 00004KT 18/16 A2973 RMK A01 T01760160  RH  090%=      5-min Rain = 0
KJU1 250323Z 35005KT 18/16 A2973 RMK A01 T01750159  RH  090%=      5-min Rain = 0
KJU1 250324Z 00004KT 18/16 A2973 RMK A01 T01750159  RH  090%=      5-min Rain = 0
KJU1 250325Z 01003KT 18/16 A2973 RMK A01 T01750159  RH  090%=      5-min Rain = 0
KJU1 250326Z 01003KT 18/16 A2973 RMK A01 T01750159  RH  091%=      5-min Rain = 0
KJU1 250327Z 33002KT 18/16 A2973 RMK A01 T01750159  RH  091%=      5-min Rain = 0
KJU1 250328Z 29001KT 17/16 A2974 RMK A01 T01740159  RH  091%=      5-min Rain = 0
KJU1 250329Z 29001KT 17/16 A2974 RMK A01 T01740160  RH  091%=      5-min Rain = 0
KJU1 250330Z 00000KT 17/16 A2974 RMK A01 T01740160  RH  091%=      5-min Rain = 0
KJU1 250331Z 00000KT 17/16 A2974 RMK A01 T01740160  RH  091%=      5-min Rain = 0
KJU1 250332Z 02000KT 17/16 A2974 RMK A01 T01740160  RH  091%=      5-min Rain = 0
KJU1 250333Z 05000KT 17/16 A2975 RMK A01 T01740160  RH  092%=      5-min Rain = 0
KJU1 250334Z 06001KT 17/16 A2975 RMK A01 T01740160  RH  091%=      5-min Rain = 0
KJU1 250335Z 06001KT 17/16 A2975 RMK A01 T01740160  RH  092%=      5-min Rain = 0
KJU1 250336Z 03001KT 17/16 A2975 RMK A01 T01740161  RH  092%=      5-min Rain = 0
KJU1 250337Z 02001KT 18/16 A2975 RMK A01 T01750162  RH  092%=      5-min Rain = 0
KJU1 250338Z 02001KT 18/16 A2975 RMK A01 T01750162  RH  092%=      5-min Rain = 0
KJU1 250339Z 00000KT 17/16 A2975 RMK A01 T01740162  RH  092%=      5-min Rain = 0
KJU1 250340Z 00000KT 17/16 A2975 RMK A01 T01740163  RH  093%=      5-min Rain = 0
KJU1 250341Z 15001KT 18/17 A2975 RMK A01 T01750165  RH  094%=      5-min Rain = 0
KJU1 250342Z 15000KT 18/17 A2975 RMK A01 T01760166  RH  094%=      5-min Rain = 0
KJU1 250343Z 00000KT 18/17 A2975 RMK A01 T01760167  RH  094%=      5-min Rain = 0
KJU1 250344Z 03001KT 18/17 A2975 RMK A01 T01760167  RH  094%=      5-min Rain = 0
KJU1 250345Z 03001KT 18/17 A2975 RMK A01 T01760167  RH  094%=      5-min Rain = 0
KJU1 250346Z 01002KT 18/17 A2975 RMK A01 T01750166  RH  095%=      5-min Rain = 0
KJU1 250347Z 00002KT 18/17 A2976 RMK A01 T01750168  RH  095%=      5-min Rain = 0
KJU1 250348Z 01003KT 18/17 A2976 RMK A01 T01750167  RH  095%=      5-min Rain = 0
KJU1 250349Z 01002KT 17/17 A2976 RMK A01 T01740166  RH  095%=      5-min Rain = 0
KJU1 250350Z 05001KT 17/17 A2976 RMK A01 T01730165  RH  095%=      5-min Rain = 0
KJU1 250351Z 10002KT 17/17 A2976 RMK A01 T01730165  RH  095%=      5-min Rain = 0
KJU1 250352Z 11004KT 17/17 A2975 RMK A01 T01730165  RH  095%=      5-min Rain = 0
KJU1 250353Z 10005KT 17/17 A2975 RMK A01 T01740167  RH  096%=      5-min Rain = 0
KJU1 250354Z 10004KT 17/17 A2975 RMK A01 T01740167  RH  096%=      5-min Rain = 0
KJU1 250355Z 11002KT 17/17 A2975 RMK A01 T01740167  RH  096%=      5-min Rain = 0
KJU1 250356Z 03001KT 17/17 A2976 RMK A01 T01730166  RH  096%=      5-min Rain = 0
KJU1 250357Z 34003KT 17/17 A2976 RMK A01 T01730167  RH  096%=      5-min Rain = 0
KJU1 250358Z 35004KT 17/17 A2977 RMK A01 T01730167  RH  096%=      5-min Rain = 0
KJU1 250359Z 36005KT 17/17 A2977 RMK A01 T01730167  RH  096%=      5-min Rain = 0
KJU1 250400Z 02005KT 17/17 A2976 RMK A01 T01730166  RH  096%=      5-min Rain = 0
KJU1 250401Z 03005KT 17/17 A2976 RMK A01 T01730167  RH  096%=      5-min Rain = 0
KJU1 250402Z 04004KT 17/17 A2976 RMK A01 T01730166  RH  096%=      5-min Rain = 0
KJU1 250403Z 04003KT 17/17 A2976 RMK A01 T01730166  RH  096%=      5-min Rain = 0
KJU1 250404Z 04003KT 17/17 A2976 RMK A01 T01720166  RH  096%=      5-min Rain = 0
KJU1 250405Z 03003KT 17/17 A2975 RMK A01 T01720165  RH  096%=      5-min Rain = 0
KJU1 250406Z 01004KT 17/17 A2976 RMK A01 T01720165  RH  095%=      5-min Rain = 0
KJU1 250407Z 36004KT 17/16 A2976 RMK A01 T01720164  RH  095%=      5-min Rain = 0
KJU1 250408Z 35004KT 17/16 A2976 RMK A01 T01720164  RH  095%=      5-min Rain = 0
KJU1 250409Z 35004KT 17/16 A2976 RMK A01 T01720164  RH  095%=      5-min Rain = 0
KJU1 250410Z 34004KT 17/16 A2976 RMK A01 T01720164  RH  095%=      5-min Rain = 0
KJU1 250411Z 34004KT 17/16 A2977 RMK A01 T01730164  RH  095%=      5-min Rain = 0
KJU1 250412Z 31003KT 17/16 A2977 RMK A01 T01730164  RH  095%=      5-min Rain = 0
KJU1 250413Z 32001KT 17/16 A2977 RMK A01 T01730164  RH  095%=      5-min Rain = 0
KJU1 250414Z 31002KT 17/17 A2977 RMK A01 T01730165  RH  095%=      5-min Rain = 0
KJU1 250415Z 32001KT 17/17 A2977 RMK A01 T01740165  RH  095%=      5-min Rain = 0
KJU1 250416Z 35000KT 17/17 A2977 RMK A01 T01740165  RH  095%=      5-min Rain = 0
KJU1 250417Z 06000KT 17/17 A2976 RMK A01 T01740165  RH  095%=      5-min Rain = 0
KJU1 250418Z 07003KT 17/17 A2976 RMK A01 T01740165  RH  095%=      5-min Rain = 0
KJU1 250419Z 06003KT 17/17 A2976 RMK A01 T01740165  RH  094%=      5-min Rain = 0
KJU1 250420Z 03002KT 17/16 A2976 RMK A01 T01740164  RH  094%=      5-min Rain = 0
KJU1 250421Z 34002KT 17/17 A2977 RMK A01 T01740165  RH  094%=      5-min Rain = 0
KJU1 250422Z 33002KT 17/17 A2977 RMK A01 T01740165  RH  095%=      5-min Rain = 0
KJU1 250423Z 34002KT 17/17 A2977 RMK A01 T01740166  RH  095%=      5-min Rain = 0
KJU1 250424Z 00000KT 17/17 A2976 RMK A01 T01740166  RH  095%=      5-min Rain = 0
KJU1 250425Z 08001KT 17/17 A2976 RMK A01 T01740166  RH  095%=      5-min Rain = 0
KJU1 250426Z 08002KT 17/17 A2975 RMK A01 T01740165  RH  095%=      5-min Rain = 0
KJU1 250427Z 08004KT 17/17 A2975 RMK A01 T01730165  RH  095%=      5-min Rain = 0
KJU1 250428Z 07004KT 17/17 A2974 RMK A01 T01730165  RH  095%=      5-min Rain = 0
KJU1 250429Z 05004KT 17/17 A2974 RMK A01 T01730165  RH  095%=      5-min Rain = 0
KJU1 250430Z 02002KT 17/17 A2975 RMK A01 T01720165  RH  095%=      5-min Rain = 0
KJU1 250431Z 28001KT 17/17 A2975 RMK A01 T01720165  RH  095%=      5-min Rain = 0
KJU1 250432Z 26002KT 17/17 A2976 RMK A01 T01730166  RH  096%=      5-min Rain = 0
KJU1 250433Z 24001KT 17/17 A2975 RMK A01 T01720166  RH  096%=      5-min Rain = 0
KJU1 250434Z 35001KT 17/17 A2975 RMK A01 T01730166  RH  096%=      5-min Rain = 0
KJU1 250435Z 02003KT 17/17 A2975 RMK A01 T01720166  RH  096%=      5-min Rain = 0
KJU1 250436Z 02004KT 17/17 A2975 RMK A01 T01720166  RH  096%=      5-min Rain = 0
KJU1 250437Z 02002KT 17/17 A2975 RMK A01 T01720167  RH  096%=      5-min Rain = 0
KJU1 250438Z 03001KT 17/17 A2976 RMK A01 T01720167  RH  096%=      5-min Rain = 0
KJU1 250439Z 00000KT 17/17 A2976 RMK A01 T01720166  RH  096%=      5-min Rain = 0
KJU1 250440Z 00000KT 17/17 A2976 RMK A01 T01720166  RH  096%=      5-min Rain = 0
KJU1 250441Z 00000KT 17/17 A2976 RMK A01 T01710165  RH  096%=      5-min Rain = 0
KJU1 250442Z 00000KT 17/17 A2976 RMK A01 T01720166  RH  096%=      5-min Rain = 0
KJU1 250443Z 00002KT 17/17 A2976 RMK A01 T01720166  RH  097%=      5-min Rain = 0
KJU1 250444Z 00003KT 17/17 A2976 RMK A01 T01710166  RH  096%=      5-min Rain = 0
KJU1 250445Z 00004KT 17/17 A2977 RMK A01 T01720166  RH  096%=      5-min Rain = 0
KJU1 250446Z 35004KT 17/17 A2977 RMK A01 T01710166  RH  096%=      5-min Rain = 0
KJU1 250447Z 34003KT 17/17 A2977 RMK A01 T01720166  RH  096%=      5-min Rain = 0
KJU1 250448Z 00003KT 17/17 A2977 RMK A01 T01720165  RH  096%=      5-min Rain = 0
KJU1 250449Z 03004KT 17/17 A2976 RMK A01 T01720165  RH  096%=      5-min Rain = 0
KJU1 250450Z 04004KT 17/17 A2975 RMK A01 T01710165  RH  096%=      5-min Rain = 0
KJU1 250451Z 03004KT 17/17 A2975 RMK A01 T01710165  RH  096%=      5-min Rain = 0
KJU1 250452Z 34004KT 17/17 A2976 RMK A01 T01720165  RH  096%=      5-min Rain = 0
KJU1 250453Z 34005KT 17/17 A2977 RMK A01 T01720165  RH  096%=      5-min Rain = 0
KJU1 250454Z 35006KT 17/17 A2977 RMK A01 T01710165  RH  096%=      5-min Rain = 0
KJU1 250455Z 35007KT 17/17 A2977 RMK A01 T01720165  RH  096%=      5-min Rain = 0
KJU1 250456Z 35006KT 17/17 A2977 RMK A01 T01710165  RH  096%=      5-min Rain = 0
KJU1 250457Z 35004KT 17/16 A2977 RMK A01 T01720164  RH  096%=      5-min Rain = 0
KJU1 250458Z 35005KT 17/16 A2978 RMK A01 T01720164  RH  095%=      5-min Rain = 0
KJU1 250459Z 36005KT 17/16 A2978 RMK A01 T01720164  RH  095%=      5-min Rain = 0

Page generated in 0.0714 seconds.